<?xml version="1.0" encoding="UTF-8" standalone="no" ?>
<gpx xmlns="http://www.topografix.com/GPX/1/1" xmlns:xsi="http://www.w3.org/2001/XMLSchema-instance" xsi:schemaLocation="http://www.topografix.com/GPX/1/1 http://www.topografix.com/GPX/1/1/gpx.xsd" version="1.1" creator="VisuGPX - https://www.visugpx.com">
  <metadata>
    <name>Cernans - Les monts de Salins</name>
    <desc><![CDATA[Randonnée pédestre effectuée le 10 septembre 2020]]></desc>
  </metadata>
  <trk>
    <name><![CDATA[10 sept. 2020 à 09:07:58]]></name>
    <trkseg>
      <trkpt lat="46.93117" lon="5.94879">
        <ele>609</ele>
        <time>2020-09-10T07:07:58Z</time>
      </trkpt>
      <trkpt lat="46.93117" lon="5.94879">
        <ele>609</ele>
        <time>2020-09-10T07:07:59Z</time>
      </trkpt>
      <trkpt lat="46.93112" lon="5.94886">
        <ele>610</ele>
        <time>2020-09-10T07:08:17Z</time>
      </trkpt>
      <trkpt lat="46.93107" lon="5.94873">
        <ele>609</ele>
        <time>2020-09-10T07:09:02Z</time>
      </trkpt>
      <trkpt lat="46.93107" lon="5.94821">
        <ele>610</ele>
        <time>2020-09-10T07:09:30Z</time>
      </trkpt>
      <trkpt lat="46.93109" lon="5.94814">
        <ele>610</ele>
        <time>2020-09-10T07:09:34Z</time>
      </trkpt>
      <trkpt lat="46.93113" lon="5.94752">
        <ele>611</ele>
        <time>2020-09-10T07:10:08Z</time>
      </trkpt>
      <trkpt lat="46.93115" lon="5.94733">
        <ele>612</ele>
        <time>2020-09-10T07:10:17Z</time>
      </trkpt>
      <trkpt lat="46.93119" lon="5.94699">
        <ele>613</ele>
        <time>2020-09-10T07:10:35Z</time>
      </trkpt>
      <trkpt lat="46.93117" lon="5.9468">
        <ele>614</ele>
        <time>2020-09-10T07:10:47Z</time>
      </trkpt>
      <trkpt lat="46.93118" lon="5.94669">
        <ele>615</ele>
        <time>2020-09-10T07:10:54Z</time>
      </trkpt>
      <trkpt lat="46.93117" lon="5.94661">
        <ele>614</ele>
        <time>2020-09-10T07:10:59Z</time>
      </trkpt>
      <trkpt lat="46.93117" lon="5.94652">
        <ele>614</ele>
        <time>2020-09-10T07:11:03Z</time>
      </trkpt>
      <trkpt lat="46.93119" lon="5.94644">
        <ele>615</ele>
        <time>2020-09-10T07:11:09Z</time>
      </trkpt>
      <trkpt lat="46.93119" lon="5.94635">
        <ele>615</ele>
        <time>2020-09-10T07:11:14Z</time>
      </trkpt>
      <trkpt lat="46.93126" lon="5.94581">
        <ele>615</ele>
        <time>2020-09-10T07:11:45Z</time>
      </trkpt>
      <trkpt lat="46.93127" lon="5.94563">
        <ele>615</ele>
        <time>2020-09-10T07:11:55Z</time>
      </trkpt>
      <trkpt lat="46.9313" lon="5.94556">
        <ele>615</ele>
        <time>2020-09-10T07:12:00Z</time>
      </trkpt>
      <trkpt lat="46.93131" lon="5.94547">
        <ele>615</ele>
        <time>2020-09-10T07:12:05Z</time>
      </trkpt>
      <trkpt lat="46.9313" lon="5.94533">
        <ele>615</ele>
        <time>2020-09-10T07:12:15Z</time>
      </trkpt>
      <trkpt lat="46.93132" lon="5.94508">
        <ele>615</ele>
        <time>2020-09-10T07:12:31Z</time>
      </trkpt>
      <trkpt lat="46.93133" lon="5.94499">
        <ele>616</ele>
        <time>2020-09-10T07:12:37Z</time>
      </trkpt>
      <trkpt lat="46.93136" lon="5.94445">
        <ele>618</ele>
        <time>2020-09-10T07:13:12Z</time>
      </trkpt>
      <trkpt lat="46.93137" lon="5.94438">
        <ele>618</ele>
        <time>2020-09-10T07:13:18Z</time>
      </trkpt>
      <trkpt lat="46.93139" lon="5.94385">
        <ele>622</ele>
        <time>2020-09-10T07:13:53Z</time>
      </trkpt>
      <trkpt lat="46.93137" lon="5.94378">
        <ele>622</ele>
        <time>2020-09-10T07:13:59Z</time>
      </trkpt>
      <trkpt lat="46.93139" lon="5.94369">
        <ele>623</ele>
        <time>2020-09-10T07:14:05Z</time>
      </trkpt>
      <trkpt lat="46.93139" lon="5.94351">
        <ele>623</ele>
        <time>2020-09-10T07:14:15Z</time>
      </trkpt>
      <trkpt lat="46.93137" lon="5.94334">
        <ele>625</ele>
        <time>2020-09-10T07:14:26Z</time>
      </trkpt>
      <trkpt lat="46.93139" lon="5.94326">
        <ele>625</ele>
        <time>2020-09-10T07:14:32Z</time>
      </trkpt>
      <trkpt lat="46.93138" lon="5.94318">
        <ele>626</ele>
        <time>2020-09-10T07:14:38Z</time>
      </trkpt>
      <trkpt lat="46.93139" lon="5.94307">
        <ele>626</ele>
        <time>2020-09-10T07:14:45Z</time>
      </trkpt>
      <trkpt lat="46.93141" lon="5.94246">
        <ele>627</ele>
        <time>2020-09-10T07:15:21Z</time>
      </trkpt>
      <trkpt lat="46.93144" lon="5.94193">
        <ele>628</ele>
        <time>2020-09-10T07:15:53Z</time>
      </trkpt>
      <trkpt lat="46.93139" lon="5.94154">
        <ele>628</ele>
        <time>2020-09-10T07:16:24Z</time>
      </trkpt>
      <trkpt lat="46.93141" lon="5.94123">
        <ele>627</ele>
        <time>2020-09-10T07:16:51Z</time>
      </trkpt>
      <trkpt lat="46.93144" lon="5.94115">
        <ele>627</ele>
        <time>2020-09-10T07:16:57Z</time>
      </trkpt>
      <trkpt lat="46.93144" lon="5.94107">
        <ele>627</ele>
        <time>2020-09-10T07:17:02Z</time>
      </trkpt>
      <trkpt lat="46.93154" lon="5.94082">
        <ele>626</ele>
        <time>2020-09-10T07:17:22Z</time>
      </trkpt>
      <trkpt lat="46.93157" lon="5.94073">
        <ele>626</ele>
        <time>2020-09-10T07:17:28Z</time>
      </trkpt>
      <trkpt lat="46.93159" lon="5.94062">
        <ele>625</ele>
        <time>2020-09-10T07:17:34Z</time>
      </trkpt>
      <trkpt lat="46.93163" lon="5.94056">
        <ele>625</ele>
        <time>2020-09-10T07:17:39Z</time>
      </trkpt>
      <trkpt lat="46.93168" lon="5.94041">
        <ele>625</ele>
        <time>2020-09-10T07:17:47Z</time>
      </trkpt>
      <trkpt lat="46.9317" lon="5.94033">
        <ele>625</ele>
        <time>2020-09-10T07:17:52Z</time>
      </trkpt>
      <trkpt lat="46.9317" lon="5.93975">
        <ele>624</ele>
        <time>2020-09-10T07:18:26Z</time>
      </trkpt>
      <trkpt lat="46.93172" lon="5.93949">
        <ele>624</ele>
        <time>2020-09-10T07:18:41Z</time>
      </trkpt>
      <trkpt lat="46.93171" lon="5.9394">
        <ele>624</ele>
        <time>2020-09-10T07:18:47Z</time>
      </trkpt>
      <trkpt lat="46.93167" lon="5.93936">
        <ele>624</ele>
        <time>2020-09-10T07:18:52Z</time>
      </trkpt>
      <trkpt lat="46.93161" lon="5.93935">
        <ele>624</ele>
        <time>2020-09-10T07:18:57Z</time>
      </trkpt>
      <trkpt lat="46.93153" lon="5.93935">
        <ele>623</ele>
        <time>2020-09-10T07:19:23Z</time>
      </trkpt>
      <trkpt lat="46.9315" lon="5.93938">
        <ele>623</ele>
        <time>2020-09-10T07:19:26Z</time>
      </trkpt>
      <trkpt lat="46.93146" lon="5.93945">
        <ele>622</ele>
        <time>2020-09-10T07:19:30Z</time>
      </trkpt>
      <trkpt lat="46.93141" lon="5.9395">
        <ele>622</ele>
        <time>2020-09-10T07:19:35Z</time>
      </trkpt>
      <trkpt lat="46.93135" lon="5.93964">
        <ele>622</ele>
        <time>2020-09-10T07:19:44Z</time>
      </trkpt>
      <trkpt lat="46.93128" lon="5.93967">
        <ele>622</ele>
        <time>2020-09-10T07:19:49Z</time>
      </trkpt>
      <trkpt lat="46.93115" lon="5.93988">
        <ele>621</ele>
        <time>2020-09-10T07:20:02Z</time>
      </trkpt>
      <trkpt lat="46.93106" lon="5.93998">
        <ele>622</ele>
        <time>2020-09-10T07:20:13Z</time>
      </trkpt>
      <trkpt lat="46.93096" lon="5.94014">
        <ele>622</ele>
        <time>2020-09-10T07:20:25Z</time>
      </trkpt>
      <trkpt lat="46.93093" lon="5.94021">
        <ele>621</ele>
        <time>2020-09-10T07:20:29Z</time>
      </trkpt>
      <trkpt lat="46.9309" lon="5.94028">
        <ele>622</ele>
        <time>2020-09-10T07:20:32Z</time>
      </trkpt>
      <trkpt lat="46.93078" lon="5.94043">
        <ele>622</ele>
        <time>2020-09-10T07:20:46Z</time>
      </trkpt>
      <trkpt lat="46.93072" lon="5.94058">
        <ele>622</ele>
        <time>2020-09-10T07:20:56Z</time>
      </trkpt>
      <trkpt lat="46.93067" lon="5.94065">
        <ele>622</ele>
        <time>2020-09-10T07:21:02Z</time>
      </trkpt>
      <trkpt lat="46.93065" lon="5.94072">
        <ele>622</ele>
        <time>2020-09-10T07:21:07Z</time>
      </trkpt>
      <trkpt lat="46.93041" lon="5.9412">
        <ele>622</ele>
        <time>2020-09-10T07:21:39Z</time>
      </trkpt>
      <trkpt lat="46.93016" lon="5.94171">
        <ele>623</ele>
        <time>2020-09-10T07:22:14Z</time>
      </trkpt>
      <trkpt lat="46.93013" lon="5.94181">
        <ele>623</ele>
        <time>2020-09-10T07:22:20Z</time>
      </trkpt>
      <trkpt lat="46.92987" lon="5.94227">
        <ele>623</ele>
        <time>2020-09-10T07:22:53Z</time>
      </trkpt>
      <trkpt lat="46.92983" lon="5.94237">
        <ele>623</ele>
        <time>2020-09-10T07:23:00Z</time>
      </trkpt>
      <trkpt lat="46.92973" lon="5.94245">
        <ele>624</ele>
        <time>2020-09-10T07:23:10Z</time>
      </trkpt>
      <trkpt lat="46.92952" lon="5.94281">
        <ele>624</ele>
        <time>2020-09-10T07:23:34Z</time>
      </trkpt>
      <trkpt lat="46.9295" lon="5.94287">
        <ele>624</ele>
        <time>2020-09-10T07:23:37Z</time>
      </trkpt>
      <trkpt lat="46.92918" lon="5.9433">
        <ele>624</ele>
        <time>2020-09-10T07:24:12Z</time>
      </trkpt>
      <trkpt lat="46.92896" lon="5.94344">
        <ele>625</ele>
        <time>2020-09-10T07:24:33Z</time>
      </trkpt>
      <trkpt lat="46.92891" lon="5.94345">
        <ele>625</ele>
        <time>2020-09-10T07:24:39Z</time>
      </trkpt>
      <trkpt lat="46.92885" lon="5.94344">
        <ele>625</ele>
        <time>2020-09-10T07:24:44Z</time>
      </trkpt>
      <trkpt lat="46.92863" lon="5.94329">
        <ele>627</ele>
        <time>2020-09-10T07:25:05Z</time>
      </trkpt>
      <trkpt lat="46.92858" lon="5.94323">
        <ele>627</ele>
        <time>2020-09-10T07:25:09Z</time>
      </trkpt>
      <trkpt lat="46.92852" lon="5.9432">
        <ele>627</ele>
        <time>2020-09-10T07:25:14Z</time>
      </trkpt>
      <trkpt lat="46.92846" lon="5.94318">
        <ele>627</ele>
        <time>2020-09-10T07:25:20Z</time>
      </trkpt>
      <trkpt lat="46.92842" lon="5.94315">
        <ele>628</ele>
        <time>2020-09-10T07:25:24Z</time>
      </trkpt>
      <trkpt lat="46.92836" lon="5.94316">
        <ele>628</ele>
        <time>2020-09-10T07:25:29Z</time>
      </trkpt>
      <trkpt lat="46.9283" lon="5.94315">
        <ele>628</ele>
        <time>2020-09-10T07:25:34Z</time>
      </trkpt>
      <trkpt lat="46.92807" lon="5.94319">
        <ele>630</ele>
        <time>2020-09-10T07:25:52Z</time>
      </trkpt>
      <trkpt lat="46.92798" lon="5.94329">
        <ele>630</ele>
        <time>2020-09-10T07:26:02Z</time>
      </trkpt>
      <trkpt lat="46.92794" lon="5.94336">
        <ele>631</ele>
        <time>2020-09-10T07:26:07Z</time>
      </trkpt>
      <trkpt lat="46.92789" lon="5.9434">
        <ele>631</ele>
        <time>2020-09-10T07:26:12Z</time>
      </trkpt>
      <trkpt lat="46.92785" lon="5.94337">
        <ele>631</ele>
        <time>2020-09-10T07:26:18Z</time>
      </trkpt>
      <trkpt lat="46.92781" lon="5.94329">
        <ele>632</ele>
        <time>2020-09-10T07:26:27Z</time>
      </trkpt>
      <trkpt lat="46.9278" lon="5.94321">
        <ele>633</ele>
        <time>2020-09-10T07:26:32Z</time>
      </trkpt>
      <trkpt lat="46.92778" lon="5.94305">
        <ele>632</ele>
        <time>2020-09-10T07:26:42Z</time>
      </trkpt>
      <trkpt lat="46.92769" lon="5.94273">
        <ele>631</ele>
        <time>2020-09-10T07:27:03Z</time>
      </trkpt>
      <trkpt lat="46.92768" lon="5.94265">
        <ele>630</ele>
        <time>2020-09-10T07:27:06Z</time>
      </trkpt>
      <trkpt lat="46.92765" lon="5.94257">
        <ele>630</ele>
        <time>2020-09-10T07:27:12Z</time>
      </trkpt>
      <trkpt lat="46.92762" lon="5.94249">
        <ele>630</ele>
        <time>2020-09-10T07:27:17Z</time>
      </trkpt>
      <trkpt lat="46.9276" lon="5.9423">
        <ele>630</ele>
        <time>2020-09-10T07:27:29Z</time>
      </trkpt>
      <trkpt lat="46.92761" lon="5.94213">
        <ele>631</ele>
        <time>2020-09-10T07:27:38Z</time>
      </trkpt>
      <trkpt lat="46.92763" lon="5.94205">
        <ele>631</ele>
        <time>2020-09-10T07:27:42Z</time>
      </trkpt>
      <trkpt lat="46.92766" lon="5.94162">
        <ele>633</ele>
        <time>2020-09-10T07:28:09Z</time>
      </trkpt>
      <trkpt lat="46.92765" lon="5.94143">
        <ele>633</ele>
        <time>2020-09-10T07:28:20Z</time>
      </trkpt>
      <trkpt lat="46.92766" lon="5.94116">
        <ele>632</ele>
        <time>2020-09-10T07:28:34Z</time>
      </trkpt>
      <trkpt lat="46.9277" lon="5.94097">
        <ele>632</ele>
        <time>2020-09-10T07:28:46Z</time>
      </trkpt>
      <trkpt lat="46.92776" lon="5.94083">
        <ele>632</ele>
        <time>2020-09-10T07:28:56Z</time>
      </trkpt>
      <trkpt lat="46.92778" lon="5.94074">
        <ele>631</ele>
        <time>2020-09-10T07:29:01Z</time>
      </trkpt>
      <trkpt lat="46.92782" lon="5.94067">
        <ele>631</ele>
        <time>2020-09-10T07:29:06Z</time>
      </trkpt>
      <trkpt lat="46.92791" lon="5.94053">
        <ele>631</ele>
        <time>2020-09-10T07:29:16Z</time>
      </trkpt>
      <trkpt lat="46.92791" lon="5.94045">
        <ele>631</ele>
        <time>2020-09-10T07:29:21Z</time>
      </trkpt>
      <trkpt lat="46.92797" lon="5.9403">
        <ele>630</ele>
        <time>2020-09-10T07:29:30Z</time>
      </trkpt>
      <trkpt lat="46.92801" lon="5.94022">
        <ele>630</ele>
        <time>2020-09-10T07:29:34Z</time>
      </trkpt>
      <trkpt lat="46.92804" lon="5.94006">
        <ele>630</ele>
        <time>2020-09-10T07:29:44Z</time>
      </trkpt>
      <trkpt lat="46.92803" lon="5.93998">
        <ele>630</ele>
        <time>2020-09-10T07:29:49Z</time>
      </trkpt>
      <trkpt lat="46.92809" lon="5.93964">
        <ele>628</ele>
        <time>2020-09-10T07:30:10Z</time>
      </trkpt>
      <trkpt lat="46.92808" lon="5.93956">
        <ele>628</ele>
        <time>2020-09-10T07:30:15Z</time>
      </trkpt>
      <trkpt lat="46.92809" lon="5.93947">
        <ele>627</ele>
        <time>2020-09-10T07:30:20Z</time>
      </trkpt>
      <trkpt lat="46.92828" lon="5.93894">
        <ele>625</ele>
        <time>2020-09-10T07:30:52Z</time>
      </trkpt>
      <trkpt lat="46.92837" lon="5.93863">
        <ele>625</ele>
        <time>2020-09-10T07:31:11Z</time>
      </trkpt>
      <trkpt lat="46.92837" lon="5.93806">
        <ele>624</ele>
        <time>2020-09-10T07:31:45Z</time>
      </trkpt>
      <trkpt lat="46.92839" lon="5.93786">
        <ele>624</ele>
        <time>2020-09-10T07:31:55Z</time>
      </trkpt>
      <trkpt lat="46.92841" lon="5.9377">
        <ele>623</ele>
        <time>2020-09-10T07:32:03Z</time>
      </trkpt>
      <trkpt lat="46.92841" lon="5.93752">
        <ele>623</ele>
        <time>2020-09-10T07:32:13Z</time>
      </trkpt>
      <trkpt lat="46.92844" lon="5.93718">
        <ele>623</ele>
        <time>2020-09-10T07:32:33Z</time>
      </trkpt>
      <trkpt lat="46.92842" lon="5.9371">
        <ele>623</ele>
        <time>2020-09-10T07:32:39Z</time>
      </trkpt>
      <trkpt lat="46.92842" lon="5.93702">
        <ele>622</ele>
        <time>2020-09-10T07:32:44Z</time>
      </trkpt>
      <trkpt lat="46.9284" lon="5.93693">
        <ele>622</ele>
        <time>2020-09-10T07:32:49Z</time>
      </trkpt>
      <trkpt lat="46.9285" lon="5.9363">
        <ele>620</ele>
        <time>2020-09-10T07:33:23Z</time>
      </trkpt>
      <trkpt lat="46.92854" lon="5.93614">
        <ele>620</ele>
        <time>2020-09-10T07:33:33Z</time>
      </trkpt>
      <trkpt lat="46.92854" lon="5.93605">
        <ele>620</ele>
        <time>2020-09-10T07:33:38Z</time>
      </trkpt>
      <trkpt lat="46.9286" lon="5.93588">
        <ele>620</ele>
        <time>2020-09-10T07:33:47Z</time>
      </trkpt>
      <trkpt lat="46.92863" lon="5.9358">
        <ele>620</ele>
        <time>2020-09-10T07:33:53Z</time>
      </trkpt>
      <trkpt lat="46.92866" lon="5.93572">
        <ele>620</ele>
        <time>2020-09-10T07:33:58Z</time>
      </trkpt>
      <trkpt lat="46.92874" lon="5.93558">
        <ele>619</ele>
        <time>2020-09-10T07:34:08Z</time>
      </trkpt>
      <trkpt lat="46.92892" lon="5.93501">
        <ele>619</ele>
        <time>2020-09-10T07:34:40Z</time>
      </trkpt>
      <trkpt lat="46.92894" lon="5.93494">
        <ele>619</ele>
        <time>2020-09-10T07:34:45Z</time>
      </trkpt>
      <trkpt lat="46.92903" lon="5.9347">
        <ele>619</ele>
        <time>2020-09-10T07:34:59Z</time>
      </trkpt>
      <trkpt lat="46.92905" lon="5.93454">
        <ele>619</ele>
        <time>2020-09-10T07:35:08Z</time>
      </trkpt>
      <trkpt lat="46.92904" lon="5.93437">
        <ele>619</ele>
        <time>2020-09-10T07:35:18Z</time>
      </trkpt>
      <trkpt lat="46.92904" lon="5.93428">
        <ele>619</ele>
        <time>2020-09-10T07:35:23Z</time>
      </trkpt>
      <trkpt lat="46.92897" lon="5.93413">
        <ele>620</ele>
        <time>2020-09-10T07:35:33Z</time>
      </trkpt>
      <trkpt lat="46.92896" lon="5.93402">
        <ele>620</ele>
        <time>2020-09-10T07:35:41Z</time>
      </trkpt>
      <trkpt lat="46.92897" lon="5.93347">
        <ele>620</ele>
        <time>2020-09-10T07:36:11Z</time>
      </trkpt>
      <trkpt lat="46.92895" lon="5.9333">
        <ele>620</ele>
        <time>2020-09-10T07:36:19Z</time>
      </trkpt>
      <trkpt lat="46.92896" lon="5.93303">
        <ele>621</ele>
        <time>2020-09-10T07:36:33Z</time>
      </trkpt>
      <trkpt lat="46.92893" lon="5.93252">
        <ele>624</ele>
        <time>2020-09-10T07:37:04Z</time>
      </trkpt>
      <trkpt lat="46.92892" lon="5.93222">
        <ele>625</ele>
        <time>2020-09-10T07:37:24Z</time>
      </trkpt>
      <trkpt lat="46.92891" lon="5.9321">
        <ele>625</ele>
        <time>2020-09-10T07:37:31Z</time>
      </trkpt>
      <trkpt lat="46.92893" lon="5.93174">
        <ele>626</ele>
        <time>2020-09-10T07:37:50Z</time>
      </trkpt>
      <trkpt lat="46.92894" lon="5.93166">
        <ele>626</ele>
        <time>2020-09-10T07:37:55Z</time>
      </trkpt>
      <trkpt lat="46.929" lon="5.93158">
        <ele>626</ele>
        <time>2020-09-10T07:38:03Z</time>
      </trkpt>
      <trkpt lat="46.92904" lon="5.93151">
        <ele>626</ele>
        <time>2020-09-10T07:38:08Z</time>
      </trkpt>
      <trkpt lat="46.92918" lon="5.93109">
        <ele>625</ele>
        <time>2020-09-10T07:38:37Z</time>
      </trkpt>
      <trkpt lat="46.92919" lon="5.93087">
        <ele>625</ele>
        <time>2020-09-10T07:38:51Z</time>
      </trkpt>
      <trkpt lat="46.92922" lon="5.93076">
        <ele>625</ele>
        <time>2020-09-10T07:38:58Z</time>
      </trkpt>
      <trkpt lat="46.92921" lon="5.93065">
        <ele>625</ele>
        <time>2020-09-10T07:39:03Z</time>
      </trkpt>
      <trkpt lat="46.92923" lon="5.93054">
        <ele>626</ele>
        <time>2020-09-10T07:39:10Z</time>
      </trkpt>
      <trkpt lat="46.92923" lon="5.93031">
        <ele>626</ele>
        <time>2020-09-10T07:39:23Z</time>
      </trkpt>
      <trkpt lat="46.92931" lon="5.92998">
        <ele>627</ele>
        <time>2020-09-10T07:39:40Z</time>
      </trkpt>
      <trkpt lat="46.92933" lon="5.92975">
        <ele>629</ele>
        <time>2020-09-10T07:39:58Z</time>
      </trkpt>
      <trkpt lat="46.9293" lon="5.92952">
        <ele>632</ele>
        <time>2020-09-10T07:40:19Z</time>
      </trkpt>
      <trkpt lat="46.92927" lon="5.92921">
        <ele>635</ele>
        <time>2020-09-10T07:40:38Z</time>
      </trkpt>
      <trkpt lat="46.92932" lon="5.9288">
        <ele>638</ele>
        <time>2020-09-10T07:41:00Z</time>
      </trkpt>
      <trkpt lat="46.92944" lon="5.9284">
        <ele>639</ele>
        <time>2020-09-10T07:41:25Z</time>
      </trkpt>
      <trkpt lat="46.92956" lon="5.92827">
        <ele>641</ele>
        <time>2020-09-10T07:41:42Z</time>
      </trkpt>
      <trkpt lat="46.92971" lon="5.92813">
        <ele>642</ele>
        <time>2020-09-10T07:41:58Z</time>
      </trkpt>
      <trkpt lat="46.9298" lon="5.92798">
        <ele>643</ele>
        <time>2020-09-10T07:42:07Z</time>
      </trkpt>
      <trkpt lat="46.92975" lon="5.92787">
        <ele>642</ele>
        <time>2020-09-10T07:42:22Z</time>
      </trkpt>
      <trkpt lat="46.92963" lon="5.92755">
        <ele>640</ele>
        <time>2020-09-10T07:42:41Z</time>
      </trkpt>
      <trkpt lat="46.92958" lon="5.92749">
        <ele>640</ele>
        <time>2020-09-10T07:42:47Z</time>
      </trkpt>
      <trkpt lat="46.92953" lon="5.92743">
        <ele>640</ele>
        <time>2020-09-10T07:42:52Z</time>
      </trkpt>
      <trkpt lat="46.92942" lon="5.92721">
        <ele>640</ele>
        <time>2020-09-10T07:43:07Z</time>
      </trkpt>
      <trkpt lat="46.92929" lon="5.92706">
        <ele>639</ele>
        <time>2020-09-10T07:43:21Z</time>
      </trkpt>
      <trkpt lat="46.92904" lon="5.92685">
        <ele>640</ele>
        <time>2020-09-10T07:43:44Z</time>
      </trkpt>
      <trkpt lat="46.9288" lon="5.92673">
        <ele>643</ele>
        <time>2020-09-10T07:44:09Z</time>
      </trkpt>
      <trkpt lat="46.92869" lon="5.92661">
        <ele>645</ele>
        <time>2020-09-10T07:44:24Z</time>
      </trkpt>
      <trkpt lat="46.9286" lon="5.92641">
        <ele>646</ele>
        <time>2020-09-10T07:44:35Z</time>
      </trkpt>
      <trkpt lat="46.92858" lon="5.92632">
        <ele>646</ele>
        <time>2020-09-10T07:44:40Z</time>
      </trkpt>
      <trkpt lat="46.92856" lon="5.92625">
        <ele>646</ele>
        <time>2020-09-10T07:44:45Z</time>
      </trkpt>
      <trkpt lat="46.92825" lon="5.92582">
        <ele>646</ele>
        <time>2020-09-10T07:45:19Z</time>
      </trkpt>
      <trkpt lat="46.92809" lon="5.92569">
        <ele>646</ele>
        <time>2020-09-10T07:45:34Z</time>
      </trkpt>
      <trkpt lat="46.92801" lon="5.92566">
        <ele>646</ele>
        <time>2020-09-10T07:45:40Z</time>
      </trkpt>
      <trkpt lat="46.92795" lon="5.92567">
        <ele>646</ele>
        <time>2020-09-10T07:45:45Z</time>
      </trkpt>
      <trkpt lat="46.92778" lon="5.92578">
        <ele>647</ele>
        <time>2020-09-10T07:46:03Z</time>
      </trkpt>
      <trkpt lat="46.92767" lon="5.92597">
        <ele>649</ele>
        <time>2020-09-10T07:46:20Z</time>
      </trkpt>
      <trkpt lat="46.92762" lon="5.926">
        <ele>649</ele>
        <time>2020-09-10T07:46:26Z</time>
      </trkpt>
      <trkpt lat="46.92755" lon="5.92601">
        <ele>650</ele>
        <time>2020-09-10T07:46:35Z</time>
      </trkpt>
      <trkpt lat="46.92732" lon="5.92576">
        <ele>654</ele>
        <time>2020-09-10T07:47:08Z</time>
      </trkpt>
      <trkpt lat="46.92725" lon="5.92571">
        <ele>654</ele>
        <time>2020-09-10T07:47:13Z</time>
      </trkpt>
      <trkpt lat="46.9272" lon="5.92565">
        <ele>655</ele>
        <time>2020-09-10T07:47:19Z</time>
      </trkpt>
      <trkpt lat="46.92716" lon="5.92556">
        <ele>655</ele>
        <time>2020-09-10T07:47:25Z</time>
      </trkpt>
      <trkpt lat="46.92714" lon="5.92545">
        <ele>656</ele>
        <time>2020-09-10T07:47:31Z</time>
      </trkpt>
      <trkpt lat="46.92708" lon="5.92538">
        <ele>656</ele>
        <time>2020-09-10T07:47:38Z</time>
      </trkpt>
      <trkpt lat="46.92702" lon="5.92518">
        <ele>657</ele>
        <time>2020-09-10T07:47:54Z</time>
      </trkpt>
      <trkpt lat="46.92697" lon="5.92464">
        <ele>660</ele>
        <time>2020-09-10T07:48:27Z</time>
      </trkpt>
      <trkpt lat="46.92694" lon="5.92452">
        <ele>661</ele>
        <time>2020-09-10T07:48:35Z</time>
      </trkpt>
      <trkpt lat="46.92688" lon="5.92422">
        <ele>662</ele>
        <time>2020-09-10T07:48:55Z</time>
      </trkpt>
      <trkpt lat="46.92683" lon="5.92406">
        <ele>663</ele>
        <time>2020-09-10T07:49:05Z</time>
      </trkpt>
      <trkpt lat="46.9268" lon="5.92395">
        <ele>663</ele>
        <time>2020-09-10T07:49:14Z</time>
      </trkpt>
      <trkpt lat="46.92656" lon="5.92342">
        <ele>665</ele>
        <time>2020-09-10T07:49:49Z</time>
      </trkpt>
      <trkpt lat="46.92653" lon="5.92335">
        <ele>665</ele>
        <time>2020-09-10T07:49:53Z</time>
      </trkpt>
      <trkpt lat="46.92652" lon="5.92326">
        <ele>665</ele>
        <time>2020-09-10T07:50:01Z</time>
      </trkpt>
      <trkpt lat="46.92657" lon="5.92328">
        <ele>666</ele>
        <time>2020-09-10T07:50:42Z</time>
      </trkpt>
      <trkpt lat="46.92669" lon="5.92355">
        <ele>666</ele>
        <time>2020-09-10T07:51:01Z</time>
      </trkpt>
      <trkpt lat="46.92675" lon="5.92363">
        <ele>665</ele>
        <time>2020-09-10T07:51:08Z</time>
      </trkpt>
      <trkpt lat="46.92684" lon="5.92359">
        <ele>667</ele>
        <time>2020-09-10T07:51:20Z</time>
      </trkpt>
      <trkpt lat="46.92688" lon="5.92335">
        <ele>671</ele>
        <time>2020-09-10T07:51:44Z</time>
      </trkpt>
      <trkpt lat="46.92681" lon="5.92316">
        <ele>673</ele>
        <time>2020-09-10T07:52:05Z</time>
      </trkpt>
      <trkpt lat="46.92682" lon="5.92308">
        <ele>672</ele>
        <time>2020-09-10T07:55:22Z</time>
      </trkpt>
      <trkpt lat="46.92677" lon="5.92309">
        <ele>672</ele>
        <time>2020-09-10T07:57:03Z</time>
      </trkpt>
      <trkpt lat="46.92683" lon="5.92296">
        <ele>673</ele>
        <time>2020-09-10T07:59:12Z</time>
      </trkpt>
      <trkpt lat="46.9269" lon="5.92292">
        <ele>676</ele>
        <time>2020-09-10T07:59:23Z</time>
      </trkpt>
      <trkpt lat="46.92704" lon="5.9228">
        <ele>681</ele>
        <time>2020-09-10T07:59:53Z</time>
      </trkpt>
      <trkpt lat="46.92713" lon="5.92283">
        <ele>682</ele>
        <time>2020-09-10T08:00:05Z</time>
      </trkpt>
      <trkpt lat="46.9272" lon="5.9228">
        <ele>684</ele>
        <time>2020-09-10T08:00:17Z</time>
      </trkpt>
      <trkpt lat="46.92728" lon="5.92277">
        <ele>686</ele>
        <time>2020-09-10T08:00:30Z</time>
      </trkpt>
      <trkpt lat="46.92732" lon="5.92269">
        <ele>687</ele>
        <time>2020-09-10T08:00:39Z</time>
      </trkpt>
      <trkpt lat="46.92726" lon="5.92255">
        <ele>688</ele>
        <time>2020-09-10T08:00:52Z</time>
      </trkpt>
      <trkpt lat="46.92727" lon="5.92244">
        <ele>689</ele>
        <time>2020-09-10T08:00:59Z</time>
      </trkpt>
      <trkpt lat="46.92737" lon="5.92219">
        <ele>694</ele>
        <time>2020-09-10T08:01:38Z</time>
      </trkpt>
      <trkpt lat="46.9274" lon="5.92209">
        <ele>696</ele>
        <time>2020-09-10T08:01:51Z</time>
      </trkpt>
      <trkpt lat="46.92735" lon="5.92178">
        <ele>699</ele>
        <time>2020-09-10T08:02:22Z</time>
      </trkpt>
      <trkpt lat="46.92731" lon="5.92174">
        <ele>699</ele>
        <time>2020-09-10T08:02:28Z</time>
      </trkpt>
      <trkpt lat="46.92726" lon="5.92164">
        <ele>701</ele>
        <time>2020-09-10T08:02:53Z</time>
      </trkpt>
      <trkpt lat="46.92725" lon="5.92156">
        <ele>701</ele>
        <time>2020-09-10T08:02:59Z</time>
      </trkpt>
      <trkpt lat="46.92722" lon="5.92146">
        <ele>703</ele>
        <time>2020-09-10T08:03:12Z</time>
      </trkpt>
      <trkpt lat="46.9272" lon="5.92136">
        <ele>702</ele>
        <time>2020-09-10T08:03:24Z</time>
      </trkpt>
      <trkpt lat="46.92719" lon="5.92128">
        <ele>702</ele>
        <time>2020-09-10T08:03:30Z</time>
      </trkpt>
      <trkpt lat="46.9272" lon="5.92116">
        <ele>703</ele>
        <time>2020-09-10T08:03:42Z</time>
      </trkpt>
      <trkpt lat="46.92717" lon="5.92105">
        <ele>704</ele>
        <time>2020-09-10T08:03:54Z</time>
      </trkpt>
      <trkpt lat="46.92715" lon="5.92096">
        <ele>704</ele>
        <time>2020-09-10T08:04:06Z</time>
      </trkpt>
      <trkpt lat="46.92713" lon="5.92088">
        <ele>704</ele>
        <time>2020-09-10T08:04:13Z</time>
      </trkpt>
      <trkpt lat="46.92711" lon="5.92081">
        <ele>704</ele>
        <time>2020-09-10T08:04:25Z</time>
      </trkpt>
      <trkpt lat="46.92708" lon="5.92075">
        <ele>704</ele>
        <time>2020-09-10T08:05:09Z</time>
      </trkpt>
      <trkpt lat="46.92703" lon="5.92069">
        <ele>703</ele>
        <time>2020-09-10T08:06:15Z</time>
      </trkpt>
      <trkpt lat="46.92697" lon="5.92064">
        <ele>701</ele>
        <time>2020-09-10T08:08:09Z</time>
      </trkpt>
      <trkpt lat="46.9269" lon="5.9206">
        <ele>700</ele>
        <time>2020-09-10T08:08:28Z</time>
      </trkpt>
      <trkpt lat="46.92684" lon="5.9206">
        <ele>699</ele>
        <time>2020-09-10T08:08:35Z</time>
      </trkpt>
      <trkpt lat="46.9268" lon="5.92055">
        <ele>698</ele>
        <time>2020-09-10T08:08:53Z</time>
      </trkpt>
      <trkpt lat="46.92675" lon="5.92049">
        <ele>697</ele>
        <time>2020-09-10T08:09:05Z</time>
      </trkpt>
      <trkpt lat="46.9267" lon="5.92044">
        <ele>696</ele>
        <time>2020-09-10T08:09:11Z</time>
      </trkpt>
      <trkpt lat="46.92664" lon="5.92039">
        <ele>695</ele>
        <time>2020-09-10T08:09:18Z</time>
      </trkpt>
      <trkpt lat="46.92661" lon="5.92031">
        <ele>694</ele>
        <time>2020-09-10T08:09:24Z</time>
      </trkpt>
      <trkpt lat="46.92659" lon="5.92024">
        <ele>694</ele>
        <time>2020-09-10T08:09:29Z</time>
      </trkpt>
      <trkpt lat="46.92655" lon="5.92016">
        <ele>694</ele>
        <time>2020-09-10T08:09:35Z</time>
      </trkpt>
      <trkpt lat="46.92653" lon="5.92008">
        <ele>694</ele>
        <time>2020-09-10T08:09:40Z</time>
      </trkpt>
      <trkpt lat="46.92646" lon="5.91998">
        <ele>693</ele>
        <time>2020-09-10T08:09:57Z</time>
      </trkpt>
      <trkpt lat="46.92644" lon="5.91989">
        <ele>693</ele>
        <time>2020-09-10T08:10:09Z</time>
      </trkpt>
      <trkpt lat="46.92643" lon="5.91974">
        <ele>693</ele>
        <time>2020-09-10T08:10:21Z</time>
      </trkpt>
      <trkpt lat="46.92643" lon="5.91966">
        <ele>693</ele>
        <time>2020-09-10T08:10:26Z</time>
      </trkpt>
      <trkpt lat="46.92637" lon="5.91948">
        <ele>694</ele>
        <time>2020-09-10T08:10:39Z</time>
      </trkpt>
      <trkpt lat="46.92635" lon="5.91933">
        <ele>693</ele>
        <time>2020-09-10T08:10:53Z</time>
      </trkpt>
      <trkpt lat="46.92633" lon="5.91926">
        <ele>693</ele>
        <time>2020-09-10T08:10:59Z</time>
      </trkpt>
      <trkpt lat="46.92632" lon="5.91917">
        <ele>693</ele>
        <time>2020-09-10T08:11:07Z</time>
      </trkpt>
      <trkpt lat="46.92631" lon="5.91887">
        <ele>695</ele>
        <time>2020-09-10T08:11:31Z</time>
      </trkpt>
      <trkpt lat="46.9263" lon="5.91879">
        <ele>694</ele>
        <time>2020-09-10T08:11:36Z</time>
      </trkpt>
      <trkpt lat="46.92627" lon="5.91872">
        <ele>693</ele>
        <time>2020-09-10T08:12:37Z</time>
      </trkpt>
      <trkpt lat="46.92619" lon="5.91867">
        <ele>691</ele>
        <time>2020-09-10T08:12:55Z</time>
      </trkpt>
      <trkpt lat="46.92612" lon="5.91861">
        <ele>689</ele>
        <time>2020-09-10T08:13:13Z</time>
      </trkpt>
      <trkpt lat="46.92609" lon="5.91852">
        <ele>689</ele>
        <time>2020-09-10T08:13:20Z</time>
      </trkpt>
      <trkpt lat="46.92606" lon="5.91841">
        <ele>688</ele>
        <time>2020-09-10T08:13:29Z</time>
      </trkpt>
      <trkpt lat="46.92604" lon="5.9183">
        <ele>687</ele>
        <time>2020-09-10T08:13:36Z</time>
      </trkpt>
      <trkpt lat="46.92603" lon="5.91819">
        <ele>687</ele>
        <time>2020-09-10T08:13:44Z</time>
      </trkpt>
      <trkpt lat="46.92599" lon="5.91809">
        <ele>686</ele>
        <time>2020-09-10T08:13:52Z</time>
      </trkpt>
      <trkpt lat="46.92592" lon="5.918">
        <ele>685</ele>
        <time>2020-09-10T08:14:02Z</time>
      </trkpt>
      <trkpt lat="46.92578" lon="5.91773">
        <ele>683</ele>
        <time>2020-09-10T08:14:28Z</time>
      </trkpt>
      <trkpt lat="46.92571" lon="5.91768">
        <ele>683</ele>
        <time>2020-09-10T08:14:36Z</time>
      </trkpt>
      <trkpt lat="46.92557" lon="5.91746">
        <ele>681</ele>
        <time>2020-09-10T08:15:00Z</time>
      </trkpt>
      <trkpt lat="46.92552" lon="5.91736">
        <ele>680</ele>
        <time>2020-09-10T08:15:14Z</time>
      </trkpt>
      <trkpt lat="46.92546" lon="5.91732">
        <ele>680</ele>
        <time>2020-09-10T08:15:22Z</time>
      </trkpt>
      <trkpt lat="46.92543" lon="5.91719">
        <ele>680</ele>
        <time>2020-09-10T08:15:33Z</time>
      </trkpt>
      <trkpt lat="46.92539" lon="5.91703">
        <ele>679</ele>
        <time>2020-09-10T08:15:46Z</time>
      </trkpt>
      <trkpt lat="46.92528" lon="5.91684">
        <ele>677</ele>
        <time>2020-09-10T08:16:01Z</time>
      </trkpt>
      <trkpt lat="46.92523" lon="5.9168">
        <ele>676</ele>
        <time>2020-09-10T08:16:06Z</time>
      </trkpt>
      <trkpt lat="46.92519" lon="5.91674">
        <ele>676</ele>
        <time>2020-09-10T08:16:14Z</time>
      </trkpt>
      <trkpt lat="46.92487" lon="5.91676">
        <ele>673</ele>
        <time>2020-09-10T08:16:44Z</time>
      </trkpt>
      <trkpt lat="46.92479" lon="5.91684">
        <ele>672</ele>
        <time>2020-09-10T08:16:58Z</time>
      </trkpt>
      <trkpt lat="46.92478" lon="5.91692">
        <ele>672</ele>
        <time>2020-09-10T08:17:02Z</time>
      </trkpt>
      <trkpt lat="46.92478" lon="5.91701">
        <ele>673</ele>
        <time>2020-09-10T08:17:10Z</time>
      </trkpt>
      <trkpt lat="46.92481" lon="5.91711">
        <ele>674</ele>
        <time>2020-09-10T08:17:28Z</time>
      </trkpt>
      <trkpt lat="46.92479" lon="5.91721">
        <ele>674</ele>
        <time>2020-09-10T08:17:35Z</time>
      </trkpt>
      <trkpt lat="46.92481" lon="5.91738">
        <ele>674</ele>
        <time>2020-09-10T08:17:45Z</time>
      </trkpt>
      <trkpt lat="46.9248" lon="5.91746">
        <ele>673</ele>
        <time>2020-09-10T08:17:51Z</time>
      </trkpt>
      <trkpt lat="46.92481" lon="5.91758">
        <ele>673</ele>
        <time>2020-09-10T08:18:01Z</time>
      </trkpt>
      <trkpt lat="46.92487" lon="5.91764">
        <ele>672</ele>
        <time>2020-09-10T08:18:13Z</time>
      </trkpt>
      <trkpt lat="46.92493" lon="5.91769">
        <ele>671</ele>
        <time>2020-09-10T08:18:27Z</time>
      </trkpt>
      <trkpt lat="46.92484" lon="5.91795">
        <ele>668</ele>
        <time>2020-09-10T08:18:45Z</time>
      </trkpt>
      <trkpt lat="46.92479" lon="5.91801">
        <ele>668</ele>
        <time>2020-09-10T08:18:50Z</time>
      </trkpt>
      <trkpt lat="46.92474" lon="5.91817">
        <ele>668</ele>
        <time>2020-09-10T08:18:59Z</time>
      </trkpt>
      <trkpt lat="46.92464" lon="5.91826">
        <ele>667</ele>
        <time>2020-09-10T08:19:08Z</time>
      </trkpt>
      <trkpt lat="46.92451" lon="5.91843">
        <ele>665</ele>
        <time>2020-09-10T08:19:25Z</time>
      </trkpt>
      <trkpt lat="46.92448" lon="5.91851">
        <ele>664</ele>
        <time>2020-09-10T08:19:31Z</time>
      </trkpt>
      <trkpt lat="46.92443" lon="5.91856">
        <ele>663</ele>
        <time>2020-09-10T08:19:36Z</time>
      </trkpt>
      <trkpt lat="46.92439" lon="5.91865">
        <ele>663</ele>
        <time>2020-09-10T08:19:43Z</time>
      </trkpt>
      <trkpt lat="46.92439" lon="5.91874">
        <ele>663</ele>
        <time>2020-09-10T08:19:49Z</time>
      </trkpt>
      <trkpt lat="46.92437" lon="5.91883">
        <ele>662</ele>
        <time>2020-09-10T08:19:55Z</time>
      </trkpt>
      <trkpt lat="46.92438" lon="5.91892">
        <ele>662</ele>
        <time>2020-09-10T08:20:00Z</time>
      </trkpt>
      <trkpt lat="46.92436" lon="5.91906">
        <ele>663</ele>
        <time>2020-09-10T08:20:11Z</time>
      </trkpt>
      <trkpt lat="46.92437" lon="5.91914">
        <ele>663</ele>
        <time>2020-09-10T08:20:16Z</time>
      </trkpt>
      <trkpt lat="46.92436" lon="5.91924">
        <ele>663</ele>
        <time>2020-09-10T08:20:25Z</time>
      </trkpt>
      <trkpt lat="46.9243" lon="5.91923">
        <ele>665</ele>
        <time>2020-09-10T08:22:13Z</time>
      </trkpt>
      <trkpt lat="46.92421" lon="5.91914">
        <ele>665</ele>
        <time>2020-09-10T08:22:24Z</time>
      </trkpt>
      <trkpt lat="46.92416" lon="5.91913">
        <ele>665</ele>
        <time>2020-09-10T08:22:28Z</time>
      </trkpt>
      <trkpt lat="46.9241" lon="5.91907">
        <ele>665</ele>
        <time>2020-09-10T08:22:36Z</time>
      </trkpt>
      <trkpt lat="46.92403" lon="5.91899">
        <ele>665</ele>
        <time>2020-09-10T08:22:49Z</time>
      </trkpt>
      <trkpt lat="46.92398" lon="5.91895">
        <ele>666</ele>
        <time>2020-09-10T08:22:55Z</time>
      </trkpt>
      <trkpt lat="46.92385" lon="5.91886">
        <ele>666</ele>
        <time>2020-09-10T08:23:09Z</time>
      </trkpt>
      <trkpt lat="46.9238" lon="5.9188">
        <ele>666</ele>
        <time>2020-09-10T08:23:14Z</time>
      </trkpt>
      <trkpt lat="46.92372" lon="5.91874">
        <ele>666</ele>
        <time>2020-09-10T08:23:21Z</time>
      </trkpt>
      <trkpt lat="46.92367" lon="5.91871">
        <ele>666</ele>
        <time>2020-09-10T08:23:26Z</time>
      </trkpt>
      <trkpt lat="46.92369" lon="5.91874">
        <ele>666</ele>
        <time>2020-09-10T08:23:45Z</time>
      </trkpt>
      <trkpt lat="46.92371" lon="5.91865">
        <ele>666</ele>
        <time>2020-09-10T08:23:51Z</time>
      </trkpt>
      <trkpt lat="46.92372" lon="5.91853">
        <ele>666</ele>
        <time>2020-09-10T08:24:05Z</time>
      </trkpt>
      <trkpt lat="46.92371" lon="5.91828">
        <ele>666</ele>
        <time>2020-09-10T08:24:20Z</time>
      </trkpt>
      <trkpt lat="46.92375" lon="5.91817">
        <ele>667</ele>
        <time>2020-09-10T08:24:30Z</time>
      </trkpt>
      <trkpt lat="46.92376" lon="5.91795">
        <ele>667</ele>
        <time>2020-09-10T08:24:44Z</time>
      </trkpt>
      <trkpt lat="46.92375" lon="5.91784">
        <ele>668</ele>
        <time>2020-09-10T08:24:50Z</time>
      </trkpt>
      <trkpt lat="46.92371" lon="5.91773">
        <ele>668</ele>
        <time>2020-09-10T08:24:57Z</time>
      </trkpt>
      <trkpt lat="46.92368" lon="5.91746">
        <ele>669</ele>
        <time>2020-09-10T08:25:16Z</time>
      </trkpt>
      <trkpt lat="46.92365" lon="5.91736">
        <ele>670</ele>
        <time>2020-09-10T08:25:24Z</time>
      </trkpt>
      <trkpt lat="46.9236" lon="5.91688">
        <ele>671</ele>
        <time>2020-09-10T08:25:55Z</time>
      </trkpt>
      <trkpt lat="46.9236" lon="5.91674">
        <ele>671</ele>
        <time>2020-09-10T08:26:05Z</time>
      </trkpt>
      <trkpt lat="46.92363" lon="5.91651">
        <ele>671</ele>
        <time>2020-09-10T08:26:19Z</time>
      </trkpt>
      <trkpt lat="46.92363" lon="5.9164">
        <ele>671</ele>
        <time>2020-09-10T08:26:25Z</time>
      </trkpt>
      <trkpt lat="46.92369" lon="5.91619">
        <ele>672</ele>
        <time>2020-09-10T08:26:38Z</time>
      </trkpt>
      <trkpt lat="46.9238" lon="5.91583">
        <ele>672</ele>
        <time>2020-09-10T08:27:02Z</time>
      </trkpt>
      <trkpt lat="46.92381" lon="5.91573">
        <ele>672</ele>
        <time>2020-09-10T08:27:09Z</time>
      </trkpt>
      <trkpt lat="46.92377" lon="5.9156">
        <ele>671</ele>
        <time>2020-09-10T08:27:19Z</time>
      </trkpt>
      <trkpt lat="46.92365" lon="5.91542">
        <ele>671</ele>
        <time>2020-09-10T08:27:37Z</time>
      </trkpt>
      <trkpt lat="46.92359" lon="5.91536">
        <ele>671</ele>
        <time>2020-09-10T08:27:45Z</time>
      </trkpt>
      <trkpt lat="46.92352" lon="5.91531">
        <ele>672</ele>
        <time>2020-09-10T08:27:52Z</time>
      </trkpt>
      <trkpt lat="46.92348" lon="5.91522">
        <ele>672</ele>
        <time>2020-09-10T08:27:59Z</time>
      </trkpt>
      <trkpt lat="46.92333" lon="5.91507">
        <ele>671</ele>
        <time>2020-09-10T08:28:20Z</time>
      </trkpt>
      <trkpt lat="46.9233" lon="5.9149">
        <ele>670</ele>
        <time>2020-09-10T08:28:35Z</time>
      </trkpt>
      <trkpt lat="46.92314" lon="5.91473">
        <ele>670</ele>
        <time>2020-09-10T08:28:52Z</time>
      </trkpt>
      <trkpt lat="46.92309" lon="5.91461">
        <ele>669</ele>
        <time>2020-09-10T08:29:02Z</time>
      </trkpt>
      <trkpt lat="46.92295" lon="5.9145">
        <ele>669</ele>
        <time>2020-09-10T08:29:15Z</time>
      </trkpt>
      <trkpt lat="46.92279" lon="5.9144">
        <ele>669</ele>
        <time>2020-09-10T08:29:28Z</time>
      </trkpt>
      <trkpt lat="46.92272" lon="5.91441">
        <ele>669</ele>
        <time>2020-09-10T08:29:33Z</time>
      </trkpt>
      <trkpt lat="46.92257" lon="5.91434">
        <ele>670</ele>
        <time>2020-09-10T08:29:47Z</time>
      </trkpt>
      <trkpt lat="46.9225" lon="5.91433">
        <ele>670</ele>
        <time>2020-09-10T08:29:54Z</time>
      </trkpt>
      <trkpt lat="46.92241" lon="5.91429">
        <ele>670</ele>
        <time>2020-09-10T08:30:01Z</time>
      </trkpt>
      <trkpt lat="46.92224" lon="5.91416">
        <ele>672</ele>
        <time>2020-09-10T08:30:26Z</time>
      </trkpt>
      <trkpt lat="46.92186" lon="5.91379">
        <ele>673</ele>
        <time>2020-09-10T08:31:05Z</time>
      </trkpt>
      <trkpt lat="46.92178" lon="5.91368">
        <ele>673</ele>
        <time>2020-09-10T08:31:22Z</time>
      </trkpt>
      <trkpt lat="46.92165" lon="5.91355">
        <ele>673</ele>
        <time>2020-09-10T08:31:39Z</time>
      </trkpt>
      <trkpt lat="46.92155" lon="5.91339">
        <ele>673</ele>
        <time>2020-09-10T08:31:57Z</time>
      </trkpt>
      <trkpt lat="46.92132" lon="5.91319">
        <ele>673</ele>
        <time>2020-09-10T08:32:22Z</time>
      </trkpt>
      <trkpt lat="46.92125" lon="5.91311">
        <ele>672</ele>
        <time>2020-09-10T08:32:30Z</time>
      </trkpt>
      <trkpt lat="46.92119" lon="5.91308">
        <ele>673</ele>
        <time>2020-09-10T08:32:38Z</time>
      </trkpt>
      <trkpt lat="46.92093" lon="5.91308">
        <ele>674</ele>
        <time>2020-09-10T08:33:04Z</time>
      </trkpt>
      <trkpt lat="46.92087" lon="5.91314">
        <ele>674</ele>
        <time>2020-09-10T08:33:09Z</time>
      </trkpt>
      <trkpt lat="46.9205" lon="5.91325">
        <ele>675</ele>
        <time>2020-09-10T08:33:42Z</time>
      </trkpt>
      <trkpt lat="46.92042" lon="5.91328">
        <ele>675</ele>
        <time>2020-09-10T08:33:49Z</time>
      </trkpt>
      <trkpt lat="46.92037" lon="5.91331">
        <ele>675</ele>
        <time>2020-09-10T08:33:55Z</time>
      </trkpt>
      <trkpt lat="46.92031" lon="5.91329">
        <ele>675</ele>
        <time>2020-09-10T08:33:59Z</time>
      </trkpt>
      <trkpt lat="46.9202" lon="5.91334">
        <ele>675</ele>
        <time>2020-09-10T08:34:12Z</time>
      </trkpt>
      <trkpt lat="46.92014" lon="5.9133">
        <ele>674</ele>
        <time>2020-09-10T08:34:18Z</time>
      </trkpt>
      <trkpt lat="46.92006" lon="5.91317">
        <ele>674</ele>
        <time>2020-09-10T08:34:28Z</time>
      </trkpt>
      <trkpt lat="46.92004" lon="5.91308">
        <ele>674</ele>
        <time>2020-09-10T08:34:33Z</time>
      </trkpt>
      <trkpt lat="46.91998" lon="5.91299">
        <ele>673</ele>
        <time>2020-09-10T08:34:42Z</time>
      </trkpt>
      <trkpt lat="46.91986" lon="5.91292">
        <ele>673</ele>
        <time>2020-09-10T08:34:55Z</time>
      </trkpt>
      <trkpt lat="46.91969" lon="5.91294">
        <ele>672</ele>
        <time>2020-09-10T08:35:08Z</time>
      </trkpt>
      <trkpt lat="46.91935" lon="5.91276">
        <ele>669</ele>
        <time>2020-09-10T08:35:40Z</time>
      </trkpt>
      <trkpt lat="46.91902" lon="5.91266">
        <ele>667</ele>
        <time>2020-09-10T08:36:08Z</time>
      </trkpt>
      <trkpt lat="46.9188" lon="5.91246">
        <ele>665</ele>
        <time>2020-09-10T08:36:32Z</time>
      </trkpt>
      <trkpt lat="46.91877" lon="5.91226">
        <ele>664</ele>
        <time>2020-09-10T08:36:41Z</time>
      </trkpt>
      <trkpt lat="46.91876" lon="5.91216">
        <ele>664</ele>
        <time>2020-09-10T08:36:46Z</time>
      </trkpt>
      <trkpt lat="46.91872" lon="5.91201">
        <ele>663</ele>
        <time>2020-09-10T08:36:54Z</time>
      </trkpt>
      <trkpt lat="46.91873" lon="5.91193">
        <ele>663</ele>
        <time>2020-09-10T08:36:59Z</time>
      </trkpt>
      <trkpt lat="46.91871" lon="5.91183">
        <ele>663</ele>
        <time>2020-09-10T08:37:04Z</time>
      </trkpt>
      <trkpt lat="46.91862" lon="5.9116">
        <ele>663</ele>
        <time>2020-09-10T08:37:17Z</time>
      </trkpt>
      <trkpt lat="46.91849" lon="5.91149">
        <ele>664</ele>
        <time>2020-09-10T08:37:33Z</time>
      </trkpt>
      <trkpt lat="46.91834" lon="5.91146">
        <ele>665</ele>
        <time>2020-09-10T08:37:47Z</time>
      </trkpt>
      <trkpt lat="46.91818" lon="5.91152">
        <ele>666</ele>
        <time>2020-09-10T08:38:01Z</time>
      </trkpt>
      <trkpt lat="46.91812" lon="5.91158">
        <ele>667</ele>
        <time>2020-09-10T08:38:09Z</time>
      </trkpt>
      <trkpt lat="46.91804" lon="5.91161">
        <ele>668</ele>
        <time>2020-09-10T08:38:17Z</time>
      </trkpt>
      <trkpt lat="46.91791" lon="5.91164">
        <ele>668</ele>
        <time>2020-09-10T08:38:29Z</time>
      </trkpt>
      <trkpt lat="46.91779" lon="5.91156">
        <ele>670</ele>
        <time>2020-09-10T08:38:44Z</time>
      </trkpt>
      <trkpt lat="46.91772" lon="5.91152">
        <ele>670</ele>
        <time>2020-09-10T08:38:50Z</time>
      </trkpt>
      <trkpt lat="46.91762" lon="5.91135">
        <ele>670</ele>
        <time>2020-09-10T08:39:01Z</time>
      </trkpt>
      <trkpt lat="46.91754" lon="5.91104">
        <ele>670</ele>
        <time>2020-09-10T08:39:21Z</time>
      </trkpt>
      <trkpt lat="46.91749" lon="5.91095">
        <ele>672</ele>
        <time>2020-09-10T08:39:35Z</time>
      </trkpt>
      <trkpt lat="46.91734" lon="5.91109">
        <ele>673</ele>
        <time>2020-09-10T08:39:50Z</time>
      </trkpt>
      <trkpt lat="46.91719" lon="5.91138">
        <ele>675</ele>
        <time>2020-09-10T08:40:16Z</time>
      </trkpt>
      <trkpt lat="46.91691" lon="5.91166">
        <ele>679</ele>
        <time>2020-09-10T08:40:49Z</time>
      </trkpt>
      <trkpt lat="46.91682" lon="5.9117">
        <ele>680</ele>
        <time>2020-09-10T08:41:15Z</time>
      </trkpt>
      <trkpt lat="46.91674" lon="5.91172">
        <ele>680</ele>
        <time>2020-09-10T08:41:27Z</time>
      </trkpt>
      <trkpt lat="46.91669" lon="5.91175">
        <ele>680</ele>
        <time>2020-09-10T08:41:33Z</time>
      </trkpt>
      <trkpt lat="46.91668" lon="5.91183">
        <ele>681</ele>
        <time>2020-09-10T08:41:53Z</time>
      </trkpt>
      <trkpt lat="46.9166" lon="5.91185">
        <ele>681</ele>
        <time>2020-09-10T08:42:43Z</time>
      </trkpt>
      <trkpt lat="46.91654" lon="5.9119">
        <ele>681</ele>
        <time>2020-09-10T08:42:48Z</time>
      </trkpt>
      <trkpt lat="46.91647" lon="5.91199">
        <ele>681</ele>
        <time>2020-09-10T08:42:56Z</time>
      </trkpt>
      <trkpt lat="46.91633" lon="5.91216">
        <ele>682</ele>
        <time>2020-09-10T08:43:11Z</time>
      </trkpt>
      <trkpt lat="46.91623" lon="5.91225">
        <ele>683</ele>
        <time>2020-09-10T08:43:21Z</time>
      </trkpt>
      <trkpt lat="46.91613" lon="5.91235">
        <ele>684</ele>
        <time>2020-09-10T08:43:31Z</time>
      </trkpt>
      <trkpt lat="46.91588" lon="5.91273">
        <ele>685</ele>
        <time>2020-09-10T08:44:03Z</time>
      </trkpt>
      <trkpt lat="46.91576" lon="5.91293">
        <ele>685</ele>
        <time>2020-09-10T08:44:18Z</time>
      </trkpt>
      <trkpt lat="46.91571" lon="5.91297">
        <ele>685</ele>
        <time>2020-09-10T08:44:23Z</time>
      </trkpt>
      <trkpt lat="46.91564" lon="5.913">
        <ele>686</ele>
        <time>2020-09-10T08:44:28Z</time>
      </trkpt>
      <trkpt lat="46.91551" lon="5.91318">
        <ele>686</ele>
        <time>2020-09-10T08:44:42Z</time>
      </trkpt>
      <trkpt lat="46.91545" lon="5.91321">
        <ele>686</ele>
        <time>2020-09-10T08:44:47Z</time>
      </trkpt>
      <trkpt lat="46.91536" lon="5.91333">
        <ele>686</ele>
        <time>2020-09-10T08:44:58Z</time>
      </trkpt>
      <trkpt lat="46.91519" lon="5.91348">
        <ele>687</ele>
        <time>2020-09-10T08:45:15Z</time>
      </trkpt>
      <trkpt lat="46.91493" lon="5.91384">
        <ele>687</ele>
        <time>2020-09-10T08:45:45Z</time>
      </trkpt>
      <trkpt lat="46.91483" lon="5.91394">
        <ele>686</ele>
        <time>2020-09-10T08:45:54Z</time>
      </trkpt>
      <trkpt lat="46.91467" lon="5.91415">
        <ele>684</ele>
        <time>2020-09-10T08:46:15Z</time>
      </trkpt>
      <trkpt lat="46.91456" lon="5.91425">
        <ele>684</ele>
        <time>2020-09-10T08:46:23Z</time>
      </trkpt>
      <trkpt lat="46.91445" lon="5.9143">
        <ele>683</ele>
        <time>2020-09-10T08:46:32Z</time>
      </trkpt>
      <trkpt lat="46.91429" lon="5.91464">
        <ele>683</ele>
        <time>2020-09-10T08:47:11Z</time>
      </trkpt>
      <trkpt lat="46.91425" lon="5.91473">
        <ele>683</ele>
        <time>2020-09-10T08:47:22Z</time>
      </trkpt>
      <trkpt lat="46.9142" lon="5.9148">
        <ele>684</ele>
        <time>2020-09-10T08:47:30Z</time>
      </trkpt>
      <trkpt lat="46.91421" lon="5.91488">
        <ele>684</ele>
        <time>2020-09-10T08:48:41Z</time>
      </trkpt>
      <trkpt lat="46.91415" lon="5.91491">
        <ele>684</ele>
        <time>2020-09-10T08:49:05Z</time>
      </trkpt>
      <trkpt lat="46.91418" lon="5.9149">
        <ele>683</ele>
        <time>2020-09-10T08:52:28Z</time>
      </trkpt>
      <trkpt lat="46.91416" lon="5.91484">
        <ele>684</ele>
        <time>2020-09-10T08:54:38Z</time>
      </trkpt>
      <trkpt lat="46.91406" lon="5.91486">
        <ele>683</ele>
        <time>2020-09-10T08:54:50Z</time>
      </trkpt>
      <trkpt lat="46.91396" lon="5.91496">
        <ele>683</ele>
        <time>2020-09-10T08:55:01Z</time>
      </trkpt>
      <trkpt lat="46.91392" lon="5.91504">
        <ele>683</ele>
        <time>2020-09-10T08:55:10Z</time>
      </trkpt>
      <trkpt lat="46.91386" lon="5.91508">
        <ele>683</ele>
        <time>2020-09-10T08:55:16Z</time>
      </trkpt>
      <trkpt lat="46.91382" lon="5.91514">
        <ele>683</ele>
        <time>2020-09-10T08:55:20Z</time>
      </trkpt>
      <trkpt lat="46.91366" lon="5.91527">
        <ele>682</ele>
        <time>2020-09-10T08:55:38Z</time>
      </trkpt>
      <trkpt lat="46.91349" lon="5.91551">
        <ele>681</ele>
        <time>2020-09-10T08:55:59Z</time>
      </trkpt>
      <trkpt lat="46.91318" lon="5.9158">
        <ele>678</ele>
        <time>2020-09-10T08:56:29Z</time>
      </trkpt>
      <trkpt lat="46.91286" lon="5.9162">
        <ele>676</ele>
        <time>2020-09-10T08:57:03Z</time>
      </trkpt>
      <trkpt lat="46.91281" lon="5.91624">
        <ele>676</ele>
        <time>2020-09-10T08:57:07Z</time>
      </trkpt>
      <trkpt lat="46.91279" lon="5.91633">
        <ele>675</ele>
        <time>2020-09-10T08:57:34Z</time>
      </trkpt>
      <trkpt lat="46.91264" lon="5.91645">
        <ele>674</ele>
        <time>2020-09-10T08:58:03Z</time>
      </trkpt>
      <trkpt lat="46.91256" lon="5.91658">
        <ele>674</ele>
        <time>2020-09-10T08:58:11Z</time>
      </trkpt>
      <trkpt lat="46.91251" lon="5.91662">
        <ele>674</ele>
        <time>2020-09-10T08:58:15Z</time>
      </trkpt>
      <trkpt lat="46.91242" lon="5.91677">
        <ele>674</ele>
        <time>2020-09-10T08:58:23Z</time>
      </trkpt>
      <trkpt lat="46.9121" lon="5.91715">
        <ele>674</ele>
        <time>2020-09-10T08:58:58Z</time>
      </trkpt>
      <trkpt lat="46.91201" lon="5.91727">
        <ele>674</ele>
        <time>2020-09-10T08:59:06Z</time>
      </trkpt>
      <trkpt lat="46.91196" lon="5.91731">
        <ele>674</ele>
        <time>2020-09-10T08:59:11Z</time>
      </trkpt>
      <trkpt lat="46.91164" lon="5.91774">
        <ele>674</ele>
        <time>2020-09-10T08:59:44Z</time>
      </trkpt>
      <trkpt lat="46.9116" lon="5.9178">
        <ele>674</ele>
        <time>2020-09-10T08:59:49Z</time>
      </trkpt>
      <trkpt lat="46.91127" lon="5.91818">
        <ele>675</ele>
        <time>2020-09-10T09:00:23Z</time>
      </trkpt>
      <trkpt lat="46.91093" lon="5.91853">
        <ele>677</ele>
        <time>2020-09-10T09:00:54Z</time>
      </trkpt>
      <trkpt lat="46.91082" lon="5.91863">
        <ele>678</ele>
        <time>2020-09-10T09:01:03Z</time>
      </trkpt>
      <trkpt lat="46.91078" lon="5.91869">
        <ele>679</ele>
        <time>2020-09-10T09:01:09Z</time>
      </trkpt>
      <trkpt lat="46.91063" lon="5.91886">
        <ele>680</ele>
        <time>2020-09-10T09:01:24Z</time>
      </trkpt>
      <trkpt lat="46.91055" lon="5.91898">
        <ele>682</ele>
        <time>2020-09-10T09:01:35Z</time>
      </trkpt>
      <trkpt lat="46.91034" lon="5.9192">
        <ele>684</ele>
        <time>2020-09-10T09:01:59Z</time>
      </trkpt>
      <trkpt lat="46.91031" lon="5.91927">
        <ele>685</ele>
        <time>2020-09-10T09:02:04Z</time>
      </trkpt>
      <trkpt lat="46.91012" lon="5.91944">
        <ele>686</ele>
        <time>2020-09-10T09:02:26Z</time>
      </trkpt>
      <trkpt lat="46.91004" lon="5.91956">
        <ele>687</ele>
        <time>2020-09-10T09:02:34Z</time>
      </trkpt>
      <trkpt lat="46.90983" lon="5.91977">
        <ele>689</ele>
        <time>2020-09-10T09:03:00Z</time>
      </trkpt>
      <trkpt lat="46.90975" lon="5.91979">
        <ele>690</ele>
        <time>2020-09-10T09:03:09Z</time>
      </trkpt>
      <trkpt lat="46.90967" lon="5.91975">
        <ele>690</ele>
        <time>2020-09-10T09:03:19Z</time>
      </trkpt>
      <trkpt lat="46.90955" lon="5.91954">
        <ele>689</ele>
        <time>2020-09-10T09:03:32Z</time>
      </trkpt>
      <trkpt lat="46.90948" lon="5.91939">
        <ele>688</ele>
        <time>2020-09-10T09:03:41Z</time>
      </trkpt>
      <trkpt lat="46.9094" lon="5.91925">
        <ele>688</ele>
        <time>2020-09-10T09:03:50Z</time>
      </trkpt>
      <trkpt lat="46.90919" lon="5.91871">
        <ele>685</ele>
        <time>2020-09-10T09:04:20Z</time>
      </trkpt>
      <trkpt lat="46.90895" lon="5.91827">
        <ele>683</ele>
        <time>2020-09-10T09:04:53Z</time>
      </trkpt>
      <trkpt lat="46.90883" lon="5.91808">
        <ele>683</ele>
        <time>2020-09-10T09:05:04Z</time>
      </trkpt>
      <trkpt lat="46.90867" lon="5.91795">
        <ele>682</ele>
        <time>2020-09-10T09:05:17Z</time>
      </trkpt>
      <trkpt lat="46.90864" lon="5.91789">
        <ele>682</ele>
        <time>2020-09-10T09:05:21Z</time>
      </trkpt>
      <trkpt lat="46.90848" lon="5.91773">
        <ele>682</ele>
        <time>2020-09-10T09:05:35Z</time>
      </trkpt>
      <trkpt lat="46.90817" lon="5.91726">
        <ele>683</ele>
        <time>2020-09-10T09:06:07Z</time>
      </trkpt>
      <trkpt lat="46.90813" lon="5.9172">
        <ele>683</ele>
        <time>2020-09-10T09:06:11Z</time>
      </trkpt>
      <trkpt lat="46.90782" lon="5.91678">
        <ele>684</ele>
        <time>2020-09-10T09:06:46Z</time>
      </trkpt>
      <trkpt lat="46.90773" lon="5.91665">
        <ele>685</ele>
        <time>2020-09-10T09:06:57Z</time>
      </trkpt>
      <trkpt lat="46.90754" lon="5.91645">
        <ele>685</ele>
        <time>2020-09-10T09:07:12Z</time>
      </trkpt>
      <trkpt lat="46.90742" lon="5.91625">
        <ele>685</ele>
        <time>2020-09-10T09:07:26Z</time>
      </trkpt>
      <trkpt lat="46.90735" lon="5.91611">
        <ele>685</ele>
        <time>2020-09-10T09:07:35Z</time>
      </trkpt>
      <trkpt lat="46.90731" lon="5.91605">
        <ele>686</ele>
        <time>2020-09-10T09:07:40Z</time>
      </trkpt>
      <trkpt lat="46.90729" lon="5.91601">
        <ele>686</ele>
        <time>2020-09-10T09:07:43Z</time>
      </trkpt>
      <trkpt lat="46.90708" lon="5.91559">
        <ele>686</ele>
        <time>2020-09-10T09:08:11Z</time>
      </trkpt>
      <trkpt lat="46.90684" lon="5.91518">
        <ele>688</ele>
        <time>2020-09-10T09:08:43Z</time>
      </trkpt>
      <trkpt lat="46.9067" lon="5.91502">
        <ele>688</ele>
        <time>2020-09-10T09:08:57Z</time>
      </trkpt>
      <trkpt lat="46.90659" lon="5.91494">
        <ele>689</ele>
        <time>2020-09-10T09:09:07Z</time>
      </trkpt>
      <trkpt lat="46.90647" lon="5.9148">
        <ele>689</ele>
        <time>2020-09-10T09:09:20Z</time>
      </trkpt>
      <trkpt lat="46.90621" lon="5.91459">
        <ele>690</ele>
        <time>2020-09-10T09:09:55Z</time>
      </trkpt>
      <trkpt lat="46.90589" lon="5.91429">
        <ele>691</ele>
        <time>2020-09-10T09:10:29Z</time>
      </trkpt>
      <trkpt lat="46.90575" lon="5.91419">
        <ele>691</ele>
        <time>2020-09-10T09:10:40Z</time>
      </trkpt>
      <trkpt lat="46.90542" lon="5.91378">
        <ele>692</ele>
        <time>2020-09-10T09:11:13Z</time>
      </trkpt>
      <trkpt lat="46.90511" lon="5.91349">
        <ele>693</ele>
        <time>2020-09-10T09:11:44Z</time>
      </trkpt>
      <trkpt lat="46.90504" lon="5.91343">
        <ele>693</ele>
        <time>2020-09-10T09:11:51Z</time>
      </trkpt>
      <trkpt lat="46.90491" lon="5.91327">
        <ele>693</ele>
        <time>2020-09-10T09:12:10Z</time>
      </trkpt>
      <trkpt lat="46.90485" lon="5.91318">
        <ele>693</ele>
        <time>2020-09-10T09:12:52Z</time>
      </trkpt>
      <trkpt lat="46.90464" lon="5.91299">
        <ele>694</ele>
        <time>2020-09-10T09:13:17Z</time>
      </trkpt>
      <trkpt lat="46.90451" lon="5.91292">
        <ele>693</ele>
        <time>2020-09-10T09:13:30Z</time>
      </trkpt>
      <trkpt lat="46.90442" lon="5.91278">
        <ele>694</ele>
        <time>2020-09-10T09:13:48Z</time>
      </trkpt>
      <trkpt lat="46.90434" lon="5.91274">
        <ele>694</ele>
        <time>2020-09-10T09:14:08Z</time>
      </trkpt>
      <trkpt lat="46.90434" lon="5.91261">
        <ele>694</ele>
        <time>2020-09-10T09:14:17Z</time>
      </trkpt>
      <trkpt lat="46.90438" lon="5.91253">
        <ele>693</ele>
        <time>2020-09-10T09:14:25Z</time>
      </trkpt>
      <trkpt lat="46.90446" lon="5.91251">
        <ele>693</ele>
        <time>2020-09-10T09:14:39Z</time>
      </trkpt>
      <trkpt lat="46.90454" lon="5.91252">
        <ele>693</ele>
        <time>2020-09-10T09:15:52Z</time>
      </trkpt>
      <trkpt lat="46.90449" lon="5.91253">
        <ele>693</ele>
        <time>2020-09-10T09:18:29Z</time>
      </trkpt>
      <trkpt lat="46.90443" lon="5.91262">
        <ele>694</ele>
        <time>2020-09-10T09:18:39Z</time>
      </trkpt>
      <trkpt lat="46.90426" lon="5.91259">
        <ele>695</ele>
        <time>2020-09-10T09:18:54Z</time>
      </trkpt>
      <trkpt lat="46.90418" lon="5.91255">
        <ele>695</ele>
        <time>2020-09-10T09:18:59Z</time>
      </trkpt>
      <trkpt lat="46.90411" lon="5.91254">
        <ele>695</ele>
        <time>2020-09-10T09:19:06Z</time>
      </trkpt>
      <trkpt lat="46.90405" lon="5.91246">
        <ele>696</ele>
        <time>2020-09-10T09:19:12Z</time>
      </trkpt>
      <trkpt lat="46.904" lon="5.91237">
        <ele>696</ele>
        <time>2020-09-10T09:19:19Z</time>
      </trkpt>
      <trkpt lat="46.90382" lon="5.91216">
        <ele>697</ele>
        <time>2020-09-10T09:19:38Z</time>
      </trkpt>
      <trkpt lat="46.90357" lon="5.91177">
        <ele>700</ele>
        <time>2020-09-10T09:20:16Z</time>
      </trkpt>
      <trkpt lat="46.90326" lon="5.91152">
        <ele>702</ele>
        <time>2020-09-10T09:20:51Z</time>
      </trkpt>
      <trkpt lat="46.90318" lon="5.91145">
        <ele>703</ele>
        <time>2020-09-10T09:21:01Z</time>
      </trkpt>
      <trkpt lat="46.90286" lon="5.91133">
        <ele>705</ele>
        <time>2020-09-10T09:21:32Z</time>
      </trkpt>
      <trkpt lat="46.90265" lon="5.91121">
        <ele>705</ele>
        <time>2020-09-10T09:21:50Z</time>
      </trkpt>
      <trkpt lat="46.90247" lon="5.91109">
        <ele>705</ele>
        <time>2020-09-10T09:22:08Z</time>
      </trkpt>
      <trkpt lat="46.90232" lon="5.911">
        <ele>706</ele>
        <time>2020-09-10T09:22:26Z</time>
      </trkpt>
      <trkpt lat="46.902" lon="5.9107">
        <ele>706</ele>
        <time>2020-09-10T09:22:59Z</time>
      </trkpt>
      <trkpt lat="46.90193" lon="5.9106">
        <ele>705</ele>
        <time>2020-09-10T09:23:06Z</time>
      </trkpt>
      <trkpt lat="46.90196" lon="5.91048">
        <ele>706</ele>
        <time>2020-09-10T09:23:12Z</time>
      </trkpt>
      <trkpt lat="46.90194" lon="5.91037">
        <ele>705</ele>
        <time>2020-09-10T09:23:17Z</time>
      </trkpt>
      <trkpt lat="46.90198" lon="5.91017">
        <ele>705</ele>
        <time>2020-09-10T09:23:24Z</time>
      </trkpt>
      <trkpt lat="46.90203" lon="5.90981">
        <ele>704</ele>
        <time>2020-09-10T09:23:42Z</time>
      </trkpt>
      <trkpt lat="46.90211" lon="5.90968">
        <ele>704</ele>
        <time>2020-09-10T09:23:53Z</time>
      </trkpt>
      <trkpt lat="46.90216" lon="5.90966">
        <ele>704</ele>
        <time>2020-09-10T09:23:58Z</time>
      </trkpt>
      <trkpt lat="46.90228" lon="5.90966">
        <ele>705</ele>
        <time>2020-09-10T09:24:08Z</time>
      </trkpt>
      <trkpt lat="46.90233" lon="5.9097">
        <ele>705</ele>
        <time>2020-09-10T09:24:13Z</time>
      </trkpt>
      <trkpt lat="46.90239" lon="5.90972">
        <ele>705</ele>
        <time>2020-09-10T09:24:18Z</time>
      </trkpt>
      <trkpt lat="46.90251" lon="5.90963">
        <ele>706</ele>
        <time>2020-09-10T09:24:36Z</time>
      </trkpt>
      <trkpt lat="46.90267" lon="5.90915">
        <ele>705</ele>
        <time>2020-09-10T09:25:08Z</time>
      </trkpt>
      <trkpt lat="46.90299" lon="5.90888">
        <ele>704</ele>
        <time>2020-09-10T09:25:37Z</time>
      </trkpt>
      <trkpt lat="46.90311" lon="5.90884">
        <ele>704</ele>
        <time>2020-09-10T09:25:46Z</time>
      </trkpt>
      <trkpt lat="46.90346" lon="5.90853">
        <ele>702</ele>
        <time>2020-09-10T09:26:21Z</time>
      </trkpt>
      <trkpt lat="46.90351" lon="5.90848">
        <ele>701</ele>
        <time>2020-09-10T09:26:27Z</time>
      </trkpt>
      <trkpt lat="46.90355" lon="5.90842">
        <ele>701</ele>
        <time>2020-09-10T09:26:33Z</time>
      </trkpt>
      <trkpt lat="46.9036" lon="5.90839">
        <ele>700</ele>
        <time>2020-09-10T09:26:38Z</time>
      </trkpt>
      <trkpt lat="46.90364" lon="5.90831">
        <ele>700</ele>
        <time>2020-09-10T09:26:43Z</time>
      </trkpt>
      <trkpt lat="46.90379" lon="5.90814">
        <ele>699</ele>
        <time>2020-09-10T09:26:59Z</time>
      </trkpt>
      <trkpt lat="46.90389" lon="5.90807">
        <ele>698</ele>
        <time>2020-09-10T09:27:09Z</time>
      </trkpt>
      <trkpt lat="46.9041" lon="5.90777">
        <ele>695</ele>
        <time>2020-09-10T09:27:35Z</time>
      </trkpt>
      <trkpt lat="46.90413" lon="5.90768">
        <ele>695</ele>
        <time>2020-09-10T09:27:47Z</time>
      </trkpt>
      <trkpt lat="46.90419" lon="5.90768">
        <ele>694</ele>
        <time>2020-09-10T09:27:53Z</time>
      </trkpt>
      <trkpt lat="46.90439" lon="5.9075">
        <ele>691</ele>
        <time>2020-09-10T09:28:19Z</time>
      </trkpt>
      <trkpt lat="46.90441" lon="5.90743">
        <ele>691</ele>
        <time>2020-09-10T09:28:24Z</time>
      </trkpt>
      <trkpt lat="46.90444" lon="5.90732">
        <ele>691</ele>
        <time>2020-09-10T09:28:32Z</time>
      </trkpt>
      <trkpt lat="46.90447" lon="5.90725">
        <ele>691</ele>
        <time>2020-09-10T09:28:42Z</time>
      </trkpt>
      <trkpt lat="46.90444" lon="5.90727">
        <ele>687</ele>
        <time>2020-09-10T09:35:39Z</time>
      </trkpt>
      <trkpt lat="46.90444" lon="5.90736">
        <ele>687</ele>
        <time>2020-09-10T09:36:16Z</time>
      </trkpt>
      <trkpt lat="46.90447" lon="5.90743">
        <ele>686</ele>
        <time>2020-09-10T09:37:47Z</time>
      </trkpt>
      <trkpt lat="46.90432" lon="5.90752">
        <ele>687</ele>
        <time>2020-09-10T09:38:04Z</time>
      </trkpt>
      <trkpt lat="46.9041" lon="5.90779">
        <ele>690</ele>
        <time>2020-09-10T09:38:28Z</time>
      </trkpt>
      <trkpt lat="46.90408" lon="5.90786">
        <ele>690</ele>
        <time>2020-09-10T09:38:33Z</time>
      </trkpt>
      <trkpt lat="46.90402" lon="5.90789">
        <ele>691</ele>
        <time>2020-09-10T09:38:38Z</time>
      </trkpt>
      <trkpt lat="46.90384" lon="5.90812">
        <ele>693</ele>
        <time>2020-09-10T09:38:57Z</time>
      </trkpt>
      <trkpt lat="46.90382" lon="5.90816">
        <ele>693</ele>
        <time>2020-09-10T09:39:00Z</time>
      </trkpt>
      <trkpt lat="46.90355" lon="5.90849">
        <ele>696</ele>
        <time>2020-09-10T09:39:33Z</time>
      </trkpt>
      <trkpt lat="46.90345" lon="5.90858">
        <ele>696</ele>
        <time>2020-09-10T09:39:43Z</time>
      </trkpt>
      <trkpt lat="46.90323" lon="5.90875">
        <ele>698</ele>
        <time>2020-09-10T09:40:05Z</time>
      </trkpt>
      <trkpt lat="46.90313" lon="5.90885">
        <ele>699</ele>
        <time>2020-09-10T09:40:15Z</time>
      </trkpt>
      <trkpt lat="46.90275" lon="5.90907">
        <ele>699</ele>
        <time>2020-09-10T09:40:48Z</time>
      </trkpt>
      <trkpt lat="46.9027" lon="5.90912">
        <ele>700</ele>
        <time>2020-09-10T09:40:53Z</time>
      </trkpt>
      <trkpt lat="46.90261" lon="5.90931">
        <ele>700</ele>
        <time>2020-09-10T09:41:15Z</time>
      </trkpt>
      <trkpt lat="46.90256" lon="5.90944">
        <ele>700</ele>
        <time>2020-09-10T09:41:34Z</time>
      </trkpt>
      <trkpt lat="46.90247" lon="5.90971">
        <ele>701</ele>
        <time>2020-09-10T09:41:51Z</time>
      </trkpt>
      <trkpt lat="46.90242" lon="5.90972">
        <ele>701</ele>
        <time>2020-09-10T09:41:55Z</time>
      </trkpt>
      <trkpt lat="46.90235" lon="5.9097">
        <ele>701</ele>
        <time>2020-09-10T09:42:00Z</time>
      </trkpt>
      <trkpt lat="46.90217" lon="5.90959">
        <ele>700</ele>
        <time>2020-09-10T09:42:19Z</time>
      </trkpt>
      <trkpt lat="46.90212" lon="5.90963">
        <ele>700</ele>
        <time>2020-09-10T09:42:23Z</time>
      </trkpt>
      <trkpt lat="46.90202" lon="5.90984">
        <ele>699</ele>
        <time>2020-09-10T09:42:34Z</time>
      </trkpt>
      <trkpt lat="46.902" lon="5.90993">
        <ele>699</ele>
        <time>2020-09-10T09:42:38Z</time>
      </trkpt>
      <trkpt lat="46.90201" lon="5.91002">
        <ele>700</ele>
        <time>2020-09-10T09:42:44Z</time>
      </trkpt>
      <trkpt lat="46.90196" lon="5.91017">
        <ele>700</ele>
        <time>2020-09-10T09:42:54Z</time>
      </trkpt>
      <trkpt lat="46.90196" lon="5.91026">
        <ele>701</ele>
        <time>2020-09-10T09:43:00Z</time>
      </trkpt>
      <trkpt lat="46.90194" lon="5.91034">
        <ele>701</ele>
        <time>2020-09-10T09:43:06Z</time>
      </trkpt>
      <trkpt lat="46.90183" lon="5.91052">
        <ele>702</ele>
        <time>2020-09-10T09:43:20Z</time>
      </trkpt>
      <trkpt lat="46.9018" lon="5.91059">
        <ele>703</ele>
        <time>2020-09-10T09:43:24Z</time>
      </trkpt>
      <trkpt lat="46.90173" lon="5.91071">
        <ele>703</ele>
        <time>2020-09-10T09:43:32Z</time>
      </trkpt>
      <trkpt lat="46.90169" lon="5.91077">
        <ele>704</ele>
        <time>2020-09-10T09:43:38Z</time>
      </trkpt>
      <trkpt lat="46.90162" lon="5.91093">
        <ele>703</ele>
        <time>2020-09-10T09:43:49Z</time>
      </trkpt>
      <trkpt lat="46.90159" lon="5.91101">
        <ele>703</ele>
        <time>2020-09-10T09:43:54Z</time>
      </trkpt>
      <trkpt lat="46.90154" lon="5.91107">
        <ele>703</ele>
        <time>2020-09-10T09:43:59Z</time>
      </trkpt>
      <trkpt lat="46.90143" lon="5.91134">
        <ele>703</ele>
        <time>2020-09-10T09:44:21Z</time>
      </trkpt>
      <trkpt lat="46.90137" lon="5.91131">
        <ele>703</ele>
        <time>2020-09-10T09:44:51Z</time>
      </trkpt>
      <trkpt lat="46.90126" lon="5.9113">
        <ele>704</ele>
        <time>2020-09-10T09:45:04Z</time>
      </trkpt>
      <trkpt lat="46.90121" lon="5.91127">
        <ele>704</ele>
        <time>2020-09-10T09:45:08Z</time>
      </trkpt>
      <trkpt lat="46.90116" lon="5.91129">
        <ele>704</ele>
        <time>2020-09-10T09:45:13Z</time>
      </trkpt>
      <trkpt lat="46.90103" lon="5.91128">
        <ele>704</ele>
        <time>2020-09-10T09:45:22Z</time>
      </trkpt>
      <trkpt lat="46.90101" lon="5.91132">
        <ele>704</ele>
        <time>2020-09-10T09:45:26Z</time>
      </trkpt>
      <trkpt lat="46.90095" lon="5.91137">
        <ele>704</ele>
        <time>2020-09-10T09:45:37Z</time>
      </trkpt>
      <trkpt lat="46.90081" lon="5.91139">
        <ele>705</ele>
        <time>2020-09-10T09:45:55Z</time>
      </trkpt>
      <trkpt lat="46.9007" lon="5.91147">
        <ele>705</ele>
        <time>2020-09-10T09:46:04Z</time>
      </trkpt>
      <trkpt lat="46.90057" lon="5.91146">
        <ele>705</ele>
        <time>2020-09-10T09:46:16Z</time>
      </trkpt>
      <trkpt lat="46.90051" lon="5.91149">
        <ele>705</ele>
        <time>2020-09-10T09:46:21Z</time>
      </trkpt>
      <trkpt lat="46.90045" lon="5.91148">
        <ele>705</ele>
        <time>2020-09-10T09:46:27Z</time>
      </trkpt>
      <trkpt lat="46.90038" lon="5.9115">
        <ele>705</ele>
        <time>2020-09-10T09:46:32Z</time>
      </trkpt>
      <trkpt lat="46.90032" lon="5.91151">
        <ele>705</ele>
        <time>2020-09-10T09:46:38Z</time>
      </trkpt>
      <trkpt lat="46.90026" lon="5.91153">
        <ele>705</ele>
        <time>2020-09-10T09:46:43Z</time>
      </trkpt>
      <trkpt lat="46.90006" lon="5.91168">
        <ele>704</ele>
        <time>2020-09-10T09:47:02Z</time>
      </trkpt>
      <trkpt lat="46.9" lon="5.91173">
        <ele>704</ele>
        <time>2020-09-10T09:47:09Z</time>
      </trkpt>
      <trkpt lat="46.89995" lon="5.91182">
        <ele>703</ele>
        <time>2020-09-10T09:47:17Z</time>
      </trkpt>
      <trkpt lat="46.89988" lon="5.91193">
        <ele>703</ele>
        <time>2020-09-10T09:47:26Z</time>
      </trkpt>
      <trkpt lat="46.89985" lon="5.91201">
        <ele>703</ele>
        <time>2020-09-10T09:47:31Z</time>
      </trkpt>
      <trkpt lat="46.89979" lon="5.91205">
        <ele>702</ele>
        <time>2020-09-10T09:47:35Z</time>
      </trkpt>
      <trkpt lat="46.89962" lon="5.91247">
        <ele>700</ele>
        <time>2020-09-10T09:48:05Z</time>
      </trkpt>
      <trkpt lat="46.89958" lon="5.91251">
        <ele>699</ele>
        <time>2020-09-10T09:48:09Z</time>
      </trkpt>
      <trkpt lat="46.89953" lon="5.91267">
        <ele>699</ele>
        <time>2020-09-10T09:48:18Z</time>
      </trkpt>
      <trkpt lat="46.8993" lon="5.91313">
        <ele>696</ele>
        <time>2020-09-10T09:48:52Z</time>
      </trkpt>
      <trkpt lat="46.89927" lon="5.91319">
        <ele>695</ele>
        <time>2020-09-10T09:48:57Z</time>
      </trkpt>
      <trkpt lat="46.89925" lon="5.91328">
        <ele>695</ele>
        <time>2020-09-10T09:49:02Z</time>
      </trkpt>
      <trkpt lat="46.89901" lon="5.91377">
        <ele>692</ele>
        <time>2020-09-10T09:49:36Z</time>
      </trkpt>
      <trkpt lat="46.89877" lon="5.91424">
        <ele>689</ele>
        <time>2020-09-10T09:50:07Z</time>
      </trkpt>
      <trkpt lat="46.89866" lon="5.91444">
        <ele>688</ele>
        <time>2020-09-10T09:50:23Z</time>
      </trkpt>
      <trkpt lat="46.89861" lon="5.91449">
        <ele>687</ele>
        <time>2020-09-10T09:50:27Z</time>
      </trkpt>
      <trkpt lat="46.89853" lon="5.91464">
        <ele>687</ele>
        <time>2020-09-10T09:50:36Z</time>
      </trkpt>
      <trkpt lat="46.89851" lon="5.91472">
        <ele>687</ele>
        <time>2020-09-10T09:50:40Z</time>
      </trkpt>
      <trkpt lat="46.89846" lon="5.91478">
        <ele>686</ele>
        <time>2020-09-10T09:50:48Z</time>
      </trkpt>
      <trkpt lat="46.89833" lon="5.91506">
        <ele>686</ele>
        <time>2020-09-10T09:51:07Z</time>
      </trkpt>
      <trkpt lat="46.89829" lon="5.91521">
        <ele>687</ele>
        <time>2020-09-10T09:51:15Z</time>
      </trkpt>
      <trkpt lat="46.89825" lon="5.91527">
        <ele>687</ele>
        <time>2020-09-10T09:51:20Z</time>
      </trkpt>
      <trkpt lat="46.89819" lon="5.91532">
        <ele>688</ele>
        <time>2020-09-10T09:51:26Z</time>
      </trkpt>
      <trkpt lat="46.89814" lon="5.91538">
        <ele>688</ele>
        <time>2020-09-10T09:51:31Z</time>
      </trkpt>
      <trkpt lat="46.89809" lon="5.91542">
        <ele>688</ele>
        <time>2020-09-10T09:51:36Z</time>
      </trkpt>
      <trkpt lat="46.89803" lon="5.91545">
        <ele>689</ele>
        <time>2020-09-10T09:51:42Z</time>
      </trkpt>
      <trkpt lat="46.89791" lon="5.91546">
        <ele>690</ele>
        <time>2020-09-10T09:51:52Z</time>
      </trkpt>
      <trkpt lat="46.89778" lon="5.91551">
        <ele>691</ele>
        <time>2020-09-10T09:52:03Z</time>
      </trkpt>
      <trkpt lat="46.89767" lon="5.91551">
        <ele>692</ele>
        <time>2020-09-10T09:52:15Z</time>
      </trkpt>
      <trkpt lat="46.89749" lon="5.91561">
        <ele>694</ele>
        <time>2020-09-10T09:52:33Z</time>
      </trkpt>
      <trkpt lat="46.89735" lon="5.91583">
        <ele>695</ele>
        <time>2020-09-10T09:52:50Z</time>
      </trkpt>
      <trkpt lat="46.89731" lon="5.91608">
        <ele>697</ele>
        <time>2020-09-10T09:53:05Z</time>
      </trkpt>
      <trkpt lat="46.89719" lon="5.91631">
        <ele>699</ele>
        <time>2020-09-10T09:53:22Z</time>
      </trkpt>
      <trkpt lat="46.89709" lon="5.91642">
        <ele>700</ele>
        <time>2020-09-10T09:53:31Z</time>
      </trkpt>
      <trkpt lat="46.89692" lon="5.91676">
        <ele>701</ele>
        <time>2020-09-10T09:53:55Z</time>
      </trkpt>
      <trkpt lat="46.8969" lon="5.91684">
        <ele>701</ele>
        <time>2020-09-10T09:53:59Z</time>
      </trkpt>
      <trkpt lat="46.89686" lon="5.9169">
        <ele>702</ele>
        <time>2020-09-10T09:54:04Z</time>
      </trkpt>
      <trkpt lat="46.89682" lon="5.91701">
        <ele>702</ele>
        <time>2020-09-10T09:54:12Z</time>
      </trkpt>
      <trkpt lat="46.89682" lon="5.91732">
        <ele>704</ele>
        <time>2020-09-10T09:54:32Z</time>
      </trkpt>
      <trkpt lat="46.89684" lon="5.91749">
        <ele>704</ele>
        <time>2020-09-10T09:54:42Z</time>
      </trkpt>
      <trkpt lat="46.89686" lon="5.91756">
        <ele>704</ele>
        <time>2020-09-10T09:54:47Z</time>
      </trkpt>
      <trkpt lat="46.8969" lon="5.91764">
        <ele>704</ele>
        <time>2020-09-10T09:54:51Z</time>
      </trkpt>
      <trkpt lat="46.89701" lon="5.91807">
        <ele>703</ele>
        <time>2020-09-10T09:55:19Z</time>
      </trkpt>
      <trkpt lat="46.89707" lon="5.91864">
        <ele>700</ele>
        <time>2020-09-10T09:55:51Z</time>
      </trkpt>
      <trkpt lat="46.89708" lon="5.91873">
        <ele>700</ele>
        <time>2020-09-10T09:55:56Z</time>
      </trkpt>
      <trkpt lat="46.89704" lon="5.91906">
        <ele>700</ele>
        <time>2020-09-10T09:56:12Z</time>
      </trkpt>
      <trkpt lat="46.89705" lon="5.91969">
        <ele>698</ele>
        <time>2020-09-10T09:56:44Z</time>
      </trkpt>
      <trkpt lat="46.89705" lon="5.91986">
        <ele>697</ele>
        <time>2020-09-10T09:56:53Z</time>
      </trkpt>
      <trkpt lat="46.89702" lon="5.92003">
        <ele>696</ele>
        <time>2020-09-10T09:57:02Z</time>
      </trkpt>
      <trkpt lat="46.89703" lon="5.9202">
        <ele>695</ele>
        <time>2020-09-10T09:57:11Z</time>
      </trkpt>
      <trkpt lat="46.89701" lon="5.92038">
        <ele>694</ele>
        <time>2020-09-10T09:57:22Z</time>
      </trkpt>
      <trkpt lat="46.89702" lon="5.92047">
        <ele>694</ele>
        <time>2020-09-10T09:57:27Z</time>
      </trkpt>
      <trkpt lat="46.89701" lon="5.92064">
        <ele>693</ele>
        <time>2020-09-10T09:57:36Z</time>
      </trkpt>
      <trkpt lat="46.89703" lon="5.92074">
        <ele>692</ele>
        <time>2020-09-10T09:57:41Z</time>
      </trkpt>
      <trkpt lat="46.89702" lon="5.92083">
        <ele>692</ele>
        <time>2020-09-10T09:57:45Z</time>
      </trkpt>
      <trkpt lat="46.89703" lon="5.92091">
        <ele>691</ele>
        <time>2020-09-10T09:57:50Z</time>
      </trkpt>
      <trkpt lat="46.89702" lon="5.92107">
        <ele>691</ele>
        <time>2020-09-10T09:57:58Z</time>
      </trkpt>
      <trkpt lat="46.89698" lon="5.92125">
        <ele>690</ele>
        <time>2020-09-10T09:58:08Z</time>
      </trkpt>
      <trkpt lat="46.89698" lon="5.92131">
        <ele>690</ele>
        <time>2020-09-10T09:58:12Z</time>
      </trkpt>
      <trkpt lat="46.89694" lon="5.92142">
        <ele>689</ele>
        <time>2020-09-10T09:58:18Z</time>
      </trkpt>
      <trkpt lat="46.89688" lon="5.92153">
        <ele>689</ele>
        <time>2020-09-10T09:58:26Z</time>
      </trkpt>
      <trkpt lat="46.89686" lon="5.92158">
        <ele>689</ele>
        <time>2020-09-10T09:58:29Z</time>
      </trkpt>
      <trkpt lat="46.89682" lon="5.92162">
        <ele>688</ele>
        <time>2020-09-10T09:58:32Z</time>
      </trkpt>
      <trkpt lat="46.89677" lon="5.92173">
        <ele>688</ele>
        <time>2020-09-10T09:58:38Z</time>
      </trkpt>
      <trkpt lat="46.89671" lon="5.92182">
        <ele>688</ele>
        <time>2020-09-10T09:58:44Z</time>
      </trkpt>
      <trkpt lat="46.89669" lon="5.92186">
        <ele>688</ele>
        <time>2020-09-10T09:58:47Z</time>
      </trkpt>
      <trkpt lat="46.89666" lon="5.92189">
        <ele>687</ele>
        <time>2020-09-10T09:58:50Z</time>
      </trkpt>
      <trkpt lat="46.89661" lon="5.92198">
        <ele>687</ele>
        <time>2020-09-10T09:58:57Z</time>
      </trkpt>
      <trkpt lat="46.89658" lon="5.92204">
        <ele>687</ele>
        <time>2020-09-10T09:59:03Z</time>
      </trkpt>
      <trkpt lat="46.89651" lon="5.92215">
        <ele>686</ele>
        <time>2020-09-10T09:59:20Z</time>
      </trkpt>
      <trkpt lat="46.89638" lon="5.92247">
        <ele>685</ele>
        <time>2020-09-10T09:59:38Z</time>
      </trkpt>
      <trkpt lat="46.89636" lon="5.92255">
        <ele>684</ele>
        <time>2020-09-10T09:59:44Z</time>
      </trkpt>
      <trkpt lat="46.89634" lon="5.92262">
        <ele>684</ele>
        <time>2020-09-10T09:59:47Z</time>
      </trkpt>
      <trkpt lat="46.89632" lon="5.92269">
        <ele>683</ele>
        <time>2020-09-10T09:59:51Z</time>
      </trkpt>
      <trkpt lat="46.8963" lon="5.92303">
        <ele>682</ele>
        <time>2020-09-10T10:00:08Z</time>
      </trkpt>
      <trkpt lat="46.89632" lon="5.9231">
        <ele>682</ele>
        <time>2020-09-10T10:00:13Z</time>
      </trkpt>
      <trkpt lat="46.8963" lon="5.92337">
        <ele>681</ele>
        <time>2020-09-10T10:00:27Z</time>
      </trkpt>
      <trkpt lat="46.89628" lon="5.92344">
        <ele>681</ele>
        <time>2020-09-10T10:00:31Z</time>
      </trkpt>
      <trkpt lat="46.89625" lon="5.92364">
        <ele>680</ele>
        <time>2020-09-10T10:00:40Z</time>
      </trkpt>
      <trkpt lat="46.89626" lon="5.92373">
        <ele>680</ele>
        <time>2020-09-10T10:00:44Z</time>
      </trkpt>
      <trkpt lat="46.89613" lon="5.92422">
        <ele>679</ele>
        <time>2020-09-10T10:01:14Z</time>
      </trkpt>
      <trkpt lat="46.89604" lon="5.92458">
        <ele>678</ele>
        <time>2020-09-10T10:01:35Z</time>
      </trkpt>
      <trkpt lat="46.89599" lon="5.92471">
        <ele>678</ele>
        <time>2020-09-10T10:01:49Z</time>
      </trkpt>
      <trkpt lat="46.89593" lon="5.92493">
        <ele>678</ele>
        <time>2020-09-10T10:02:08Z</time>
      </trkpt>
      <trkpt lat="46.89587" lon="5.92508">
        <ele>677</ele>
        <time>2020-09-10T10:02:19Z</time>
      </trkpt>
      <trkpt lat="46.89586" lon="5.92518">
        <ele>677</ele>
        <time>2020-09-10T10:02:25Z</time>
      </trkpt>
      <trkpt lat="46.8958" lon="5.92536">
        <ele>677</ele>
        <time>2020-09-10T10:02:32Z</time>
      </trkpt>
      <trkpt lat="46.89576" lon="5.92544">
        <ele>677</ele>
        <time>2020-09-10T10:02:36Z</time>
      </trkpt>
      <trkpt lat="46.8957" lon="5.92569">
        <ele>677</ele>
        <time>2020-09-10T10:02:51Z</time>
      </trkpt>
      <trkpt lat="46.89564" lon="5.92584">
        <ele>676</ele>
        <time>2020-09-10T10:02:59Z</time>
      </trkpt>
      <trkpt lat="46.89561" lon="5.9259">
        <ele>676</ele>
        <time>2020-09-10T10:03:04Z</time>
      </trkpt>
      <trkpt lat="46.89558" lon="5.92608">
        <ele>676</ele>
        <time>2020-09-10T10:03:14Z</time>
      </trkpt>
      <trkpt lat="46.89558" lon="5.92613">
        <ele>676</ele>
        <time>2020-09-10T10:03:18Z</time>
      </trkpt>
      <trkpt lat="46.89557" lon="5.92618">
        <ele>675</ele>
        <time>2020-09-10T10:03:21Z</time>
      </trkpt>
      <trkpt lat="46.89555" lon="5.92624">
        <ele>675</ele>
        <time>2020-09-10T10:03:24Z</time>
      </trkpt>
      <trkpt lat="46.89552" lon="5.92636">
        <ele>675</ele>
        <time>2020-09-10T10:03:32Z</time>
      </trkpt>
      <trkpt lat="46.89551" lon="5.92641">
        <ele>675</ele>
        <time>2020-09-10T10:03:35Z</time>
      </trkpt>
      <trkpt lat="46.89548" lon="5.92652">
        <ele>675</ele>
        <time>2020-09-10T10:03:41Z</time>
      </trkpt>
      <trkpt lat="46.89545" lon="5.92658">
        <ele>675</ele>
        <time>2020-09-10T10:03:44Z</time>
      </trkpt>
      <trkpt lat="46.8953" lon="5.92713">
        <ele>672</ele>
        <time>2020-09-10T10:04:16Z</time>
      </trkpt>
      <trkpt lat="46.89529" lon="5.92722">
        <ele>672</ele>
        <time>2020-09-10T10:04:21Z</time>
      </trkpt>
      <trkpt lat="46.89523" lon="5.9274">
        <ele>671</ele>
        <time>2020-09-10T10:04:33Z</time>
      </trkpt>
      <trkpt lat="46.89522" lon="5.92748">
        <ele>670</ele>
        <time>2020-09-10T10:04:37Z</time>
      </trkpt>
      <trkpt lat="46.89518" lon="5.92755">
        <ele>670</ele>
        <time>2020-09-10T10:04:42Z</time>
      </trkpt>
      <trkpt lat="46.89515" lon="5.92771">
        <ele>669</ele>
        <time>2020-09-10T10:04:51Z</time>
      </trkpt>
      <trkpt lat="46.89503" lon="5.9281">
        <ele>667</ele>
        <time>2020-09-10T10:05:15Z</time>
      </trkpt>
      <trkpt lat="46.895" lon="5.92828">
        <ele>666</ele>
        <time>2020-09-10T10:05:23Z</time>
      </trkpt>
      <trkpt lat="46.89481" lon="5.92884">
        <ele>665</ele>
        <time>2020-09-10T10:05:55Z</time>
      </trkpt>
      <trkpt lat="46.89479" lon="5.92892">
        <ele>664</ele>
        <time>2020-09-10T10:05:59Z</time>
      </trkpt>
      <trkpt lat="46.89479" lon="5.929">
        <ele>664</ele>
        <time>2020-09-10T10:06:04Z</time>
      </trkpt>
      <trkpt lat="46.89477" lon="5.92909">
        <ele>664</ele>
        <time>2020-09-10T10:06:09Z</time>
      </trkpt>
      <trkpt lat="46.89472" lon="5.92915">
        <ele>664</ele>
        <time>2020-09-10T10:06:15Z</time>
      </trkpt>
      <trkpt lat="46.8947" lon="5.92923">
        <ele>664</ele>
        <time>2020-09-10T10:06:20Z</time>
      </trkpt>
      <trkpt lat="46.89451" lon="5.92959">
        <ele>664</ele>
        <time>2020-09-10T10:06:44Z</time>
      </trkpt>
      <trkpt lat="46.89425" lon="5.92996">
        <ele>665</ele>
        <time>2020-09-10T10:07:13Z</time>
      </trkpt>
      <trkpt lat="46.89422" lon="5.93003">
        <ele>665</ele>
        <time>2020-09-10T10:07:18Z</time>
      </trkpt>
      <trkpt lat="46.89418" lon="5.9301">
        <ele>665</ele>
        <time>2020-09-10T10:07:23Z</time>
      </trkpt>
      <trkpt lat="46.89389" lon="5.93054">
        <ele>667</ele>
        <time>2020-09-10T10:07:55Z</time>
      </trkpt>
      <trkpt lat="46.89376" lon="5.9307">
        <ele>668</ele>
        <time>2020-09-10T10:08:09Z</time>
      </trkpt>
      <trkpt lat="46.89345" lon="5.93104">
        <ele>667</ele>
        <time>2020-09-10T10:08:45Z</time>
      </trkpt>
      <trkpt lat="46.89341" lon="5.9311">
        <ele>667</ele>
        <time>2020-09-10T10:08:51Z</time>
      </trkpt>
      <trkpt lat="46.89324" lon="5.93135">
        <ele>668</ele>
        <time>2020-09-10T10:09:11Z</time>
      </trkpt>
      <trkpt lat="46.89304" lon="5.93148">
        <ele>667</ele>
        <time>2020-09-10T10:09:31Z</time>
      </trkpt>
      <trkpt lat="46.893" lon="5.93154">
        <ele>667</ele>
        <time>2020-09-10T10:09:36Z</time>
      </trkpt>
      <trkpt lat="46.89296" lon="5.9316">
        <ele>667</ele>
        <time>2020-09-10T10:09:41Z</time>
      </trkpt>
      <trkpt lat="46.89297" lon="5.93169">
        <ele>667</ele>
        <time>2020-09-10T10:09:47Z</time>
      </trkpt>
      <trkpt lat="46.89301" lon="5.93175">
        <ele>667</ele>
        <time>2020-09-10T10:09:52Z</time>
      </trkpt>
      <trkpt lat="46.89312" lon="5.93185">
        <ele>667</ele>
        <time>2020-09-10T10:10:06Z</time>
      </trkpt>
      <trkpt lat="46.89324" lon="5.93191">
        <ele>668</ele>
        <time>2020-09-10T10:10:20Z</time>
      </trkpt>
      <trkpt lat="46.8932" lon="5.93201">
        <ele>668</ele>
        <time>2020-09-10T10:10:33Z</time>
      </trkpt>
      <trkpt lat="46.89306" lon="5.93217">
        <ele>667</ele>
        <time>2020-09-10T10:10:50Z</time>
      </trkpt>
      <trkpt lat="46.89301" lon="5.93226">
        <ele>666</ele>
        <time>2020-09-10T10:10:57Z</time>
      </trkpt>
      <trkpt lat="46.89288" lon="5.93234">
        <ele>665</ele>
        <time>2020-09-10T10:11:12Z</time>
      </trkpt>
      <trkpt lat="46.89283" lon="5.93244">
        <ele>664</ele>
        <time>2020-09-10T10:11:19Z</time>
      </trkpt>
      <trkpt lat="46.89274" lon="5.93252">
        <ele>663</ele>
        <time>2020-09-10T10:11:28Z</time>
      </trkpt>
      <trkpt lat="46.89268" lon="5.9326">
        <ele>662</ele>
        <time>2020-09-10T10:11:35Z</time>
      </trkpt>
      <trkpt lat="46.89261" lon="5.93265">
        <ele>662</ele>
        <time>2020-09-10T10:11:41Z</time>
      </trkpt>
      <trkpt lat="46.8924" lon="5.93299">
        <ele>659</ele>
        <time>2020-09-10T10:12:10Z</time>
      </trkpt>
      <trkpt lat="46.89234" lon="5.93305">
        <ele>658</ele>
        <time>2020-09-10T10:12:23Z</time>
      </trkpt>
      <trkpt lat="46.89226" lon="5.93305">
        <ele>658</ele>
        <time>2020-09-10T10:12:35Z</time>
      </trkpt>
      <trkpt lat="46.89222" lon="5.93315">
        <ele>658</ele>
        <time>2020-09-10T10:12:52Z</time>
      </trkpt>
      <trkpt lat="46.89211" lon="5.93322">
        <ele>657</ele>
        <time>2020-09-10T10:13:05Z</time>
      </trkpt>
      <trkpt lat="46.89206" lon="5.93329">
        <ele>656</ele>
        <time>2020-09-10T10:14:27Z</time>
      </trkpt>
      <trkpt lat="46.89192" lon="5.93339">
        <ele>656</ele>
        <time>2020-09-10T10:15:31Z</time>
      </trkpt>
      <trkpt lat="46.89214" lon="5.93356">
        <ele>656</ele>
        <time>2020-09-10T10:17:00Z</time>
      </trkpt>
      <trkpt lat="46.89209" lon="5.93339">
        <ele>656</ele>
        <time>2020-09-10T10:19:03Z</time>
      </trkpt>
      <trkpt lat="46.89182" lon="5.93347">
        <ele>654</ele>
        <time>2020-09-10T10:57:18Z</time>
      </trkpt>
      <trkpt lat="46.89181" lon="5.93347">
        <ele>654</ele>
        <time>2020-09-10T10:57:19Z</time>
      </trkpt>
      <trkpt lat="46.89175" lon="5.93354">
        <ele>655</ele>
        <time>2020-09-10T10:57:29Z</time>
      </trkpt>
      <trkpt lat="46.89175" lon="5.9337">
        <ele>656</ele>
        <time>2020-09-10T10:57:42Z</time>
      </trkpt>
      <trkpt lat="46.89176" lon="5.93382">
        <ele>655</ele>
        <time>2020-09-10T10:57:55Z</time>
      </trkpt>
      <trkpt lat="46.89166" lon="5.93391">
        <ele>655</ele>
        <time>2020-09-10T10:58:07Z</time>
      </trkpt>
      <trkpt lat="46.89161" lon="5.93395">
        <ele>655</ele>
        <time>2020-09-10T10:58:13Z</time>
      </trkpt>
      <trkpt lat="46.89155" lon="5.93401">
        <ele>654</ele>
        <time>2020-09-10T10:58:22Z</time>
      </trkpt>
      <trkpt lat="46.89143" lon="5.93412">
        <ele>655</ele>
        <time>2020-09-10T10:58:43Z</time>
      </trkpt>
      <trkpt lat="46.89127" lon="5.93428">
        <ele>657</ele>
        <time>2020-09-10T10:59:04Z</time>
      </trkpt>
      <trkpt lat="46.89119" lon="5.93443">
        <ele>660</ele>
        <time>2020-09-10T10:59:24Z</time>
      </trkpt>
      <trkpt lat="46.89112" lon="5.93454">
        <ele>660</ele>
        <time>2020-09-10T10:59:36Z</time>
      </trkpt>
      <trkpt lat="46.89107" lon="5.93461">
        <ele>661</ele>
        <time>2020-09-10T10:59:51Z</time>
      </trkpt>
      <trkpt lat="46.89101" lon="5.93456">
        <ele>661</ele>
        <time>2020-09-10T11:00:09Z</time>
      </trkpt>
      <trkpt lat="46.89097" lon="5.93449">
        <ele>661</ele>
        <time>2020-09-10T11:00:17Z</time>
      </trkpt>
      <trkpt lat="46.89083" lon="5.93421">
        <ele>661</ele>
        <time>2020-09-10T11:00:38Z</time>
      </trkpt>
      <trkpt lat="46.89075" lon="5.93409">
        <ele>661</ele>
        <time>2020-09-10T11:00:48Z</time>
      </trkpt>
      <trkpt lat="46.8907" lon="5.93395">
        <ele>661</ele>
        <time>2020-09-10T11:01:04Z</time>
      </trkpt>
      <trkpt lat="46.89068" lon="5.93389">
        <ele>660</ele>
        <time>2020-09-10T11:01:09Z</time>
      </trkpt>
      <trkpt lat="46.89059" lon="5.93385">
        <ele>660</ele>
        <time>2020-09-10T11:01:16Z</time>
      </trkpt>
      <trkpt lat="46.89053" lon="5.93387">
        <ele>660</ele>
        <time>2020-09-10T11:01:20Z</time>
      </trkpt>
      <trkpt lat="46.89036" lon="5.93405">
        <ele>661</ele>
        <time>2020-09-10T11:01:38Z</time>
      </trkpt>
      <trkpt lat="46.89032" lon="5.9341">
        <ele>661</ele>
        <time>2020-09-10T11:01:43Z</time>
      </trkpt>
      <trkpt lat="46.8901" lon="5.93428">
        <ele>663</ele>
        <time>2020-09-10T11:02:05Z</time>
      </trkpt>
      <trkpt lat="46.89007" lon="5.93434">
        <ele>663</ele>
        <time>2020-09-10T11:02:11Z</time>
      </trkpt>
      <trkpt lat="46.89" lon="5.93437">
        <ele>664</ele>
        <time>2020-09-10T11:02:16Z</time>
      </trkpt>
      <trkpt lat="46.88996" lon="5.93443">
        <ele>664</ele>
        <time>2020-09-10T11:02:21Z</time>
      </trkpt>
      <trkpt lat="46.8899" lon="5.93446">
        <ele>664</ele>
        <time>2020-09-10T11:02:27Z</time>
      </trkpt>
      <trkpt lat="46.88961" lon="5.93477">
        <ele>664</ele>
        <time>2020-09-10T11:02:58Z</time>
      </trkpt>
      <trkpt lat="46.88956" lon="5.93482">
        <ele>664</ele>
        <time>2020-09-10T11:03:03Z</time>
      </trkpt>
      <trkpt lat="46.88945" lon="5.9349">
        <ele>663</ele>
        <time>2020-09-10T11:03:13Z</time>
      </trkpt>
      <trkpt lat="46.88935" lon="5.935">
        <ele>663</ele>
        <time>2020-09-10T11:03:23Z</time>
      </trkpt>
      <trkpt lat="46.88932" lon="5.93508">
        <ele>663</ele>
        <time>2020-09-10T11:03:28Z</time>
      </trkpt>
      <trkpt lat="46.88912" lon="5.93531">
        <ele>663</ele>
        <time>2020-09-10T11:03:50Z</time>
      </trkpt>
      <trkpt lat="46.88901" lon="5.9354">
        <ele>663</ele>
        <time>2020-09-10T11:04:00Z</time>
      </trkpt>
      <trkpt lat="46.88867" lon="5.93582">
        <ele>665</ele>
        <time>2020-09-10T11:04:38Z</time>
      </trkpt>
      <trkpt lat="46.88848" lon="5.93601">
        <ele>665</ele>
        <time>2020-09-10T11:05:01Z</time>
      </trkpt>
      <trkpt lat="46.88843" lon="5.93609">
        <ele>664</ele>
        <time>2020-09-10T11:05:06Z</time>
      </trkpt>
      <trkpt lat="46.88817" lon="5.9363">
        <ele>665</ele>
        <time>2020-09-10T11:05:27Z</time>
      </trkpt>
      <trkpt lat="46.88804" lon="5.93646">
        <ele>665</ele>
        <time>2020-09-10T11:05:43Z</time>
      </trkpt>
      <trkpt lat="46.88784" lon="5.93666">
        <ele>667</ele>
        <time>2020-09-10T11:06:05Z</time>
      </trkpt>
      <trkpt lat="46.88776" lon="5.93677">
        <ele>667</ele>
        <time>2020-09-10T11:06:15Z</time>
      </trkpt>
      <trkpt lat="46.88771" lon="5.93682">
        <ele>667</ele>
        <time>2020-09-10T11:06:20Z</time>
      </trkpt>
      <trkpt lat="46.88752" lon="5.937">
        <ele>667</ele>
        <time>2020-09-10T11:06:49Z</time>
      </trkpt>
      <trkpt lat="46.88743" lon="5.9371">
        <ele>665</ele>
        <time>2020-09-10T11:07:20Z</time>
      </trkpt>
      <trkpt lat="46.88733" lon="5.93721">
        <ele>664</ele>
        <time>2020-09-10T11:07:30Z</time>
      </trkpt>
      <trkpt lat="46.88725" lon="5.93733">
        <ele>664</ele>
        <time>2020-09-10T11:07:40Z</time>
      </trkpt>
      <trkpt lat="46.88714" lon="5.9374">
        <ele>663</ele>
        <time>2020-09-10T11:07:49Z</time>
      </trkpt>
      <trkpt lat="46.88706" lon="5.93751">
        <ele>662</ele>
        <time>2020-09-10T11:07:58Z</time>
      </trkpt>
      <trkpt lat="46.88696" lon="5.93758">
        <ele>661</ele>
        <time>2020-09-10T11:08:07Z</time>
      </trkpt>
      <trkpt lat="46.88673" lon="5.93784">
        <ele>660</ele>
        <time>2020-09-10T11:08:33Z</time>
      </trkpt>
      <trkpt lat="46.88657" lon="5.93797">
        <ele>659</ele>
        <time>2020-09-10T11:08:49Z</time>
      </trkpt>
      <trkpt lat="46.88646" lon="5.9381">
        <ele>658</ele>
        <time>2020-09-10T11:09:02Z</time>
      </trkpt>
      <trkpt lat="46.88646" lon="5.93819">
        <ele>658</ele>
        <time>2020-09-10T11:09:06Z</time>
      </trkpt>
      <trkpt lat="46.88649" lon="5.93826">
        <ele>658</ele>
        <time>2020-09-10T11:09:10Z</time>
      </trkpt>
      <trkpt lat="46.88653" lon="5.93833">
        <ele>658</ele>
        <time>2020-09-10T11:09:15Z</time>
      </trkpt>
      <trkpt lat="46.88667" lon="5.93847">
        <ele>657</ele>
        <time>2020-09-10T11:09:28Z</time>
      </trkpt>
      <trkpt lat="46.88695" lon="5.93887">
        <ele>657</ele>
        <time>2020-09-10T11:09:59Z</time>
      </trkpt>
      <trkpt lat="46.88708" lon="5.93901">
        <ele>657</ele>
        <time>2020-09-10T11:10:14Z</time>
      </trkpt>
      <trkpt lat="46.88713" lon="5.93908">
        <ele>657</ele>
        <time>2020-09-10T11:10:19Z</time>
      </trkpt>
      <trkpt lat="46.88717" lon="5.93916">
        <ele>657</ele>
        <time>2020-09-10T11:10:25Z</time>
      </trkpt>
      <trkpt lat="46.8872" lon="5.93922">
        <ele>657</ele>
        <time>2020-09-10T11:10:31Z</time>
      </trkpt>
      <trkpt lat="46.88723" lon="5.9393">
        <ele>657</ele>
        <time>2020-09-10T11:10:37Z</time>
      </trkpt>
      <trkpt lat="46.88726" lon="5.93936">
        <ele>657</ele>
        <time>2020-09-10T11:10:41Z</time>
      </trkpt>
      <trkpt lat="46.88736" lon="5.93947">
        <ele>657</ele>
        <time>2020-09-10T11:10:51Z</time>
      </trkpt>
      <trkpt lat="46.88742" lon="5.93962">
        <ele>657</ele>
        <time>2020-09-10T11:11:02Z</time>
      </trkpt>
      <trkpt lat="46.88744" lon="5.9397">
        <ele>657</ele>
        <time>2020-09-10T11:11:06Z</time>
      </trkpt>
      <trkpt lat="46.88767" lon="5.94012">
        <ele>657</ele>
        <time>2020-09-10T11:11:38Z</time>
      </trkpt>
      <trkpt lat="46.88779" lon="5.94029">
        <ele>657</ele>
        <time>2020-09-10T11:11:49Z</time>
      </trkpt>
      <trkpt lat="46.88785" lon="5.94035">
        <ele>657</ele>
        <time>2020-09-10T11:11:55Z</time>
      </trkpt>
      <trkpt lat="46.88794" lon="5.94056">
        <ele>657</ele>
        <time>2020-09-10T11:12:08Z</time>
      </trkpt>
      <trkpt lat="46.88804" lon="5.94086">
        <ele>657</ele>
        <time>2020-09-10T11:12:28Z</time>
      </trkpt>
      <trkpt lat="46.88826" lon="5.94121">
        <ele>657</ele>
        <time>2020-09-10T11:12:57Z</time>
      </trkpt>
      <trkpt lat="46.88828" lon="5.9413">
        <ele>657</ele>
        <time>2020-09-10T11:13:01Z</time>
      </trkpt>
      <trkpt lat="46.88839" lon="5.94149">
        <ele>657</ele>
        <time>2020-09-10T11:13:13Z</time>
      </trkpt>
      <trkpt lat="46.88847" lon="5.94172">
        <ele>657</ele>
        <time>2020-09-10T11:13:26Z</time>
      </trkpt>
      <trkpt lat="46.88877" lon="5.94212">
        <ele>657</ele>
        <time>2020-09-10T11:14:02Z</time>
      </trkpt>
      <trkpt lat="46.88881" lon="5.94221">
        <ele>657</ele>
        <time>2020-09-10T11:14:09Z</time>
      </trkpt>
      <trkpt lat="46.88883" lon="5.94233">
        <ele>657</ele>
        <time>2020-09-10T11:14:16Z</time>
      </trkpt>
      <trkpt lat="46.88886" lon="5.94241">
        <ele>657</ele>
        <time>2020-09-10T11:14:20Z</time>
      </trkpt>
      <trkpt lat="46.8889" lon="5.94245">
        <ele>657</ele>
        <time>2020-09-10T11:14:24Z</time>
      </trkpt>
      <trkpt lat="46.88919" lon="5.94293">
        <ele>657</ele>
        <time>2020-09-10T11:15:01Z</time>
      </trkpt>
      <trkpt lat="46.88925" lon="5.94303">
        <ele>657</ele>
        <time>2020-09-10T11:15:06Z</time>
      </trkpt>
      <trkpt lat="46.88927" lon="5.94313">
        <ele>657</ele>
        <time>2020-09-10T11:15:13Z</time>
      </trkpt>
      <trkpt lat="46.88933" lon="5.94321">
        <ele>657</ele>
        <time>2020-09-10T11:15:20Z</time>
      </trkpt>
      <trkpt lat="46.88943" lon="5.94352">
        <ele>657</ele>
        <time>2020-09-10T11:15:35Z</time>
      </trkpt>
      <trkpt lat="46.8897" lon="5.94396">
        <ele>657</ele>
        <time>2020-09-10T11:16:11Z</time>
      </trkpt>
      <trkpt lat="46.88977" lon="5.94408">
        <ele>657</ele>
        <time>2020-09-10T11:16:23Z</time>
      </trkpt>
      <trkpt lat="46.8898" lon="5.94417">
        <ele>656</ele>
        <time>2020-09-10T11:16:29Z</time>
      </trkpt>
      <trkpt lat="46.88987" lon="5.94427">
        <ele>657</ele>
        <time>2020-09-10T11:16:36Z</time>
      </trkpt>
      <trkpt lat="46.88991" lon="5.94435">
        <ele>656</ele>
        <time>2020-09-10T11:16:41Z</time>
      </trkpt>
      <trkpt lat="46.88994" lon="5.94445">
        <ele>656</ele>
        <time>2020-09-10T11:16:47Z</time>
      </trkpt>
      <trkpt lat="46.89006" lon="5.94467">
        <ele>656</ele>
        <time>2020-09-10T11:17:04Z</time>
      </trkpt>
      <trkpt lat="46.89008" lon="5.94478">
        <ele>656</ele>
        <time>2020-09-10T11:17:11Z</time>
      </trkpt>
      <trkpt lat="46.89034" lon="5.94523">
        <ele>655</ele>
        <time>2020-09-10T11:17:44Z</time>
      </trkpt>
      <trkpt lat="46.89059" lon="5.94569">
        <ele>654</ele>
        <time>2020-09-10T11:18:15Z</time>
      </trkpt>
      <trkpt lat="46.89067" lon="5.94587">
        <ele>654</ele>
        <time>2020-09-10T11:18:28Z</time>
      </trkpt>
      <trkpt lat="46.89073" lon="5.94594">
        <ele>654</ele>
        <time>2020-09-10T11:18:34Z</time>
      </trkpt>
      <trkpt lat="46.89079" lon="5.94614">
        <ele>654</ele>
        <time>2020-09-10T11:18:46Z</time>
      </trkpt>
      <trkpt lat="46.8909" lon="5.94631">
        <ele>653</ele>
        <time>2020-09-10T11:18:57Z</time>
      </trkpt>
      <trkpt lat="46.891" lon="5.94655">
        <ele>653</ele>
        <time>2020-09-10T11:19:15Z</time>
      </trkpt>
      <trkpt lat="46.89111" lon="5.94671">
        <ele>653</ele>
        <time>2020-09-10T11:19:26Z</time>
      </trkpt>
      <trkpt lat="46.89118" lon="5.94685">
        <ele>652</ele>
        <time>2020-09-10T11:19:40Z</time>
      </trkpt>
      <trkpt lat="46.89125" lon="5.94692">
        <ele>652</ele>
        <time>2020-09-10T11:19:46Z</time>
      </trkpt>
      <trkpt lat="46.89133" lon="5.94713">
        <ele>652</ele>
        <time>2020-09-10T11:20:01Z</time>
      </trkpt>
      <trkpt lat="46.89143" lon="5.9473">
        <ele>652</ele>
        <time>2020-09-10T11:20:12Z</time>
      </trkpt>
      <trkpt lat="46.89156" lon="5.9476">
        <ele>652</ele>
        <time>2020-09-10T11:20:34Z</time>
      </trkpt>
      <trkpt lat="46.89161" lon="5.94772">
        <ele>652</ele>
        <time>2020-09-10T11:21:04Z</time>
      </trkpt>
      <trkpt lat="46.89163" lon="5.94784">
        <ele>651</ele>
        <time>2020-09-10T11:21:21Z</time>
      </trkpt>
      <trkpt lat="46.89174" lon="5.94801">
        <ele>651</ele>
        <time>2020-09-10T11:22:09Z</time>
      </trkpt>
      <trkpt lat="46.89192" lon="5.94835">
        <ele>651</ele>
        <time>2020-09-10T11:22:50Z</time>
      </trkpt>
      <trkpt lat="46.89214" lon="5.94874">
        <ele>651</ele>
        <time>2020-09-10T11:23:21Z</time>
      </trkpt>
      <trkpt lat="46.89228" lon="5.94902">
        <ele>651</ele>
        <time>2020-09-10T11:23:42Z</time>
      </trkpt>
      <trkpt lat="46.89244" lon="5.94929">
        <ele>651</ele>
        <time>2020-09-10T11:24:02Z</time>
      </trkpt>
      <trkpt lat="46.89242" lon="5.94925">
        <ele>651</ele>
        <time>2020-09-10T11:24:31Z</time>
      </trkpt>
      <trkpt lat="46.8923" lon="5.94927">
        <ele>651</ele>
        <time>2020-09-10T11:24:51Z</time>
      </trkpt>
      <trkpt lat="46.89223" lon="5.94932">
        <ele>651</ele>
        <time>2020-09-10T11:25:02Z</time>
      </trkpt>
      <trkpt lat="46.89216" lon="5.94949">
        <ele>650</ele>
        <time>2020-09-10T11:25:26Z</time>
      </trkpt>
      <trkpt lat="46.89215" lon="5.94953">
        <ele>651</ele>
        <time>2020-09-10T11:26:38Z</time>
      </trkpt>
      <trkpt lat="46.89213" lon="5.94954">
        <ele>651</ele>
        <time>2020-09-10T11:27:55Z</time>
      </trkpt>
      <trkpt lat="46.89226" lon="5.94953">
        <ele>651</ele>
        <time>2020-09-10T11:28:19Z</time>
      </trkpt>
      <trkpt lat="46.8923" lon="5.94943">
        <ele>652</ele>
        <time>2020-09-10T11:28:27Z</time>
      </trkpt>
      <trkpt lat="46.89238" lon="5.94935">
        <ele>652</ele>
        <time>2020-09-10T11:28:47Z</time>
      </trkpt>
      <trkpt lat="46.89244" lon="5.94942">
        <ele>652</ele>
        <time>2020-09-10T11:28:59Z</time>
      </trkpt>
      <trkpt lat="46.89249" lon="5.94952">
        <ele>652</ele>
        <time>2020-09-10T11:29:07Z</time>
      </trkpt>
      <trkpt lat="46.89251" lon="5.94959">
        <ele>652</ele>
        <time>2020-09-10T11:29:11Z</time>
      </trkpt>
      <trkpt lat="46.89274" lon="5.95001">
        <ele>651</ele>
        <time>2020-09-10T11:29:45Z</time>
      </trkpt>
      <trkpt lat="46.89279" lon="5.9501">
        <ele>651</ele>
        <time>2020-09-10T11:29:51Z</time>
      </trkpt>
      <trkpt lat="46.89282" lon="5.95019">
        <ele>651</ele>
        <time>2020-09-10T11:29:57Z</time>
      </trkpt>
      <trkpt lat="46.89301" lon="5.95057">
        <ele>651</ele>
        <time>2020-09-10T11:30:27Z</time>
      </trkpt>
      <trkpt lat="46.89306" lon="5.95067">
        <ele>651</ele>
        <time>2020-09-10T11:30:31Z</time>
      </trkpt>
      <trkpt lat="46.89317" lon="5.95082">
        <ele>651</ele>
        <time>2020-09-10T11:30:42Z</time>
      </trkpt>
      <trkpt lat="46.89341" lon="5.95128">
        <ele>651</ele>
        <time>2020-09-10T11:31:15Z</time>
      </trkpt>
      <trkpt lat="46.89344" lon="5.95137">
        <ele>651</ele>
        <time>2020-09-10T11:31:20Z</time>
      </trkpt>
      <trkpt lat="46.89366" lon="5.95184">
        <ele>650</ele>
        <time>2020-09-10T11:31:54Z</time>
      </trkpt>
      <trkpt lat="46.89382" lon="5.95214">
        <ele>650</ele>
        <time>2020-09-10T11:32:16Z</time>
      </trkpt>
      <trkpt lat="46.89388" lon="5.95222">
        <ele>650</ele>
        <time>2020-09-10T11:32:23Z</time>
      </trkpt>
      <trkpt lat="46.89391" lon="5.95233">
        <ele>650</ele>
        <time>2020-09-10T11:32:29Z</time>
      </trkpt>
      <trkpt lat="46.89403" lon="5.95248">
        <ele>651</ele>
        <time>2020-09-10T11:32:43Z</time>
      </trkpt>
      <trkpt lat="46.89422" lon="5.95297">
        <ele>650</ele>
        <time>2020-09-10T11:33:17Z</time>
      </trkpt>
      <trkpt lat="46.89425" lon="5.95303">
        <ele>650</ele>
        <time>2020-09-10T11:33:22Z</time>
      </trkpt>
      <trkpt lat="46.89429" lon="5.95311">
        <ele>651</ele>
        <time>2020-09-10T11:33:37Z</time>
      </trkpt>
      <trkpt lat="46.89453" lon="5.95344">
        <ele>651</ele>
        <time>2020-09-10T11:34:09Z</time>
      </trkpt>
      <trkpt lat="46.89459" lon="5.95368">
        <ele>650</ele>
        <time>2020-09-10T11:34:22Z</time>
      </trkpt>
      <trkpt lat="46.89472" lon="5.9539">
        <ele>650</ele>
        <time>2020-09-10T11:34:37Z</time>
      </trkpt>
      <trkpt lat="46.89475" lon="5.95397">
        <ele>650</ele>
        <time>2020-09-10T11:34:42Z</time>
      </trkpt>
      <trkpt lat="46.89502" lon="5.95442">
        <ele>649</ele>
        <time>2020-09-10T11:35:18Z</time>
      </trkpt>
      <trkpt lat="46.89512" lon="5.95462">
        <ele>649</ele>
        <time>2020-09-10T11:35:31Z</time>
      </trkpt>
      <trkpt lat="46.89517" lon="5.95477">
        <ele>649</ele>
        <time>2020-09-10T11:35:38Z</time>
      </trkpt>
      <trkpt lat="46.89535" lon="5.95518">
        <ele>649</ele>
        <time>2020-09-10T11:36:03Z</time>
      </trkpt>
      <trkpt lat="46.8954" lon="5.95523">
        <ele>649</ele>
        <time>2020-09-10T11:36:09Z</time>
      </trkpt>
      <trkpt lat="46.89558" lon="5.95559">
        <ele>648</ele>
        <time>2020-09-10T11:36:40Z</time>
      </trkpt>
      <trkpt lat="46.89589" lon="5.95602">
        <ele>647</ele>
        <time>2020-09-10T11:37:15Z</time>
      </trkpt>
      <trkpt lat="46.89597" lon="5.95619">
        <ele>647</ele>
        <time>2020-09-10T11:37:35Z</time>
      </trkpt>
      <trkpt lat="46.89603" lon="5.95626">
        <ele>647</ele>
        <time>2020-09-10T11:37:45Z</time>
      </trkpt>
      <trkpt lat="46.89605" lon="5.95638">
        <ele>647</ele>
        <time>2020-09-10T11:38:05Z</time>
      </trkpt>
      <trkpt lat="46.8961" lon="5.95627">
        <ele>647</ele>
        <time>2020-09-10T11:38:40Z</time>
      </trkpt>
      <trkpt lat="46.89619" lon="5.95603">
        <ele>647</ele>
        <time>2020-09-10T11:39:10Z</time>
      </trkpt>
      <trkpt lat="46.89625" lon="5.95596">
        <ele>647</ele>
        <time>2020-09-10T11:39:36Z</time>
      </trkpt>
      <trkpt lat="46.89639" lon="5.95579">
        <ele>647</ele>
        <time>2020-09-10T11:39:50Z</time>
      </trkpt>
      <trkpt lat="46.89639" lon="5.95571">
        <ele>648</ele>
        <time>2020-09-10T11:40:00Z</time>
      </trkpt>
      <trkpt lat="46.89643" lon="5.95563">
        <ele>648</ele>
        <time>2020-09-10T11:40:14Z</time>
      </trkpt>
      <trkpt lat="46.89649" lon="5.95547">
        <ele>648</ele>
        <time>2020-09-10T11:40:27Z</time>
      </trkpt>
      <trkpt lat="46.89664" lon="5.95556">
        <ele>648</ele>
        <time>2020-09-10T11:40:55Z</time>
      </trkpt>
      <trkpt lat="46.8967" lon="5.95563">
        <ele>648</ele>
        <time>2020-09-10T11:41:02Z</time>
      </trkpt>
      <trkpt lat="46.89677" lon="5.95571">
        <ele>647</ele>
        <time>2020-09-10T11:41:28Z</time>
      </trkpt>
      <trkpt lat="46.89678" lon="5.95581">
        <ele>646</ele>
        <time>2020-09-10T11:41:46Z</time>
      </trkpt>
      <trkpt lat="46.89686" lon="5.95599">
        <ele>646</ele>
        <time>2020-09-10T11:42:04Z</time>
      </trkpt>
      <trkpt lat="46.89698" lon="5.95615">
        <ele>647</ele>
        <time>2020-09-10T11:42:20Z</time>
      </trkpt>
      <trkpt lat="46.89705" lon="5.9562">
        <ele>647</ele>
        <time>2020-09-10T11:42:35Z</time>
      </trkpt>
      <trkpt lat="46.89705" lon="5.95632">
        <ele>647</ele>
        <time>2020-09-10T11:42:44Z</time>
      </trkpt>
      <trkpt lat="46.89718" lon="5.95629">
        <ele>647</ele>
        <time>2020-09-10T11:43:46Z</time>
      </trkpt>
      <trkpt lat="46.89713" lon="5.95628">
        <ele>646</ele>
        <time>2020-09-10T11:44:25Z</time>
      </trkpt>
      <trkpt lat="46.89708" lon="5.95651">
        <ele>645</ele>
        <time>2020-09-10T11:44:42Z</time>
      </trkpt>
      <trkpt lat="46.897" lon="5.95661">
        <ele>645</ele>
        <time>2020-09-10T11:44:55Z</time>
      </trkpt>
      <trkpt lat="46.89686" lon="5.95665">
        <ele>645</ele>
        <time>2020-09-10T11:45:11Z</time>
      </trkpt>
      <trkpt lat="46.89673" lon="5.95669">
        <ele>645</ele>
        <time>2020-09-10T11:45:25Z</time>
      </trkpt>
      <trkpt lat="46.89664" lon="5.95681">
        <ele>646</ele>
        <time>2020-09-10T11:45:50Z</time>
      </trkpt>
      <trkpt lat="46.89672" lon="5.95697">
        <ele>646</ele>
        <time>2020-09-10T11:46:05Z</time>
      </trkpt>
      <trkpt lat="46.89676" lon="5.95709">
        <ele>646</ele>
        <time>2020-09-10T11:46:15Z</time>
      </trkpt>
      <trkpt lat="46.89682" lon="5.95716">
        <ele>645</ele>
        <time>2020-09-10T11:46:26Z</time>
      </trkpt>
      <trkpt lat="46.89687" lon="5.95713">
        <ele>644</ele>
        <time>2020-09-10T11:46:49Z</time>
      </trkpt>
      <trkpt lat="46.89681" lon="5.9573">
        <ele>644</ele>
        <time>2020-09-10T11:47:09Z</time>
      </trkpt>
      <trkpt lat="46.89675" lon="5.95737">
        <ele>644</ele>
        <time>2020-09-10T11:47:16Z</time>
      </trkpt>
      <trkpt lat="46.89666" lon="5.95757">
        <ele>644</ele>
        <time>2020-09-10T11:47:31Z</time>
      </trkpt>
      <trkpt lat="46.89665" lon="5.95756">
        <ele>643</ele>
        <time>2020-09-10T11:48:35Z</time>
      </trkpt>
      <trkpt lat="46.89672" lon="5.95774">
        <ele>643</ele>
        <time>2020-09-10T11:49:14Z</time>
      </trkpt>
      <trkpt lat="46.89674" lon="5.95781">
        <ele>643</ele>
        <time>2020-09-10T11:49:19Z</time>
      </trkpt>
      <trkpt lat="46.89685" lon="5.958">
        <ele>643</ele>
        <time>2020-09-10T11:49:34Z</time>
      </trkpt>
      <trkpt lat="46.89694" lon="5.95804">
        <ele>643</ele>
        <time>2020-09-10T11:49:49Z</time>
      </trkpt>
      <trkpt lat="46.89689" lon="5.95814">
        <ele>642</ele>
        <time>2020-09-10T11:50:40Z</time>
      </trkpt>
      <trkpt lat="46.89706" lon="5.95838">
        <ele>642</ele>
        <time>2020-09-10T11:50:59Z</time>
      </trkpt>
      <trkpt lat="46.89725" lon="5.95881">
        <ele>641</ele>
        <time>2020-09-10T11:51:30Z</time>
      </trkpt>
      <trkpt lat="46.8973" lon="5.95886">
        <ele>640</ele>
        <time>2020-09-10T11:51:35Z</time>
      </trkpt>
      <trkpt lat="46.89756" lon="5.95936">
        <ele>640</ele>
        <time>2020-09-10T11:52:06Z</time>
      </trkpt>
      <trkpt lat="46.89783" lon="5.95986">
        <ele>640</ele>
        <time>2020-09-10T11:52:40Z</time>
      </trkpt>
      <trkpt lat="46.89808" lon="5.96033">
        <ele>640</ele>
        <time>2020-09-10T11:53:14Z</time>
      </trkpt>
      <trkpt lat="46.8981" lon="5.96042">
        <ele>639</ele>
        <time>2020-09-10T11:53:19Z</time>
      </trkpt>
      <trkpt lat="46.89814" lon="5.96049">
        <ele>639</ele>
        <time>2020-09-10T11:53:23Z</time>
      </trkpt>
      <trkpt lat="46.89821" lon="5.96058">
        <ele>640</ele>
        <time>2020-09-10T11:53:32Z</time>
      </trkpt>
      <trkpt lat="46.89825" lon="5.96064">
        <ele>640</ele>
        <time>2020-09-10T11:53:37Z</time>
      </trkpt>
      <trkpt lat="46.89831" lon="5.96079">
        <ele>640</ele>
        <time>2020-09-10T11:53:47Z</time>
      </trkpt>
      <trkpt lat="46.89839" lon="5.96091">
        <ele>640</ele>
        <time>2020-09-10T11:53:56Z</time>
      </trkpt>
      <trkpt lat="46.89851" lon="5.9612">
        <ele>640</ele>
        <time>2020-09-10T11:54:14Z</time>
      </trkpt>
      <trkpt lat="46.89855" lon="5.96126">
        <ele>640</ele>
        <time>2020-09-10T11:54:19Z</time>
      </trkpt>
      <trkpt lat="46.89874" lon="5.96169">
        <ele>641</ele>
        <time>2020-09-10T11:54:46Z</time>
      </trkpt>
      <trkpt lat="46.89879" lon="5.96173">
        <ele>640</ele>
        <time>2020-09-10T11:54:50Z</time>
      </trkpt>
      <trkpt lat="46.8989" lon="5.96193">
        <ele>641</ele>
        <time>2020-09-10T11:55:07Z</time>
      </trkpt>
      <trkpt lat="46.89895" lon="5.96199">
        <ele>641</ele>
        <time>2020-09-10T11:55:13Z</time>
      </trkpt>
      <trkpt lat="46.89907" lon="5.96218">
        <ele>641</ele>
        <time>2020-09-10T11:55:27Z</time>
      </trkpt>
      <trkpt lat="46.89914" lon="5.96235">
        <ele>641</ele>
        <time>2020-09-10T11:55:39Z</time>
      </trkpt>
      <trkpt lat="46.89923" lon="5.96246">
        <ele>641</ele>
        <time>2020-09-10T11:55:47Z</time>
      </trkpt>
      <trkpt lat="46.8993" lon="5.96271">
        <ele>641</ele>
        <time>2020-09-10T11:56:01Z</time>
      </trkpt>
      <trkpt lat="46.89938" lon="5.96284">
        <ele>641</ele>
        <time>2020-09-10T11:56:10Z</time>
      </trkpt>
      <trkpt lat="46.89942" lon="5.96292">
        <ele>641</ele>
        <time>2020-09-10T11:56:15Z</time>
      </trkpt>
      <trkpt lat="46.89959" lon="5.96323">
        <ele>642</ele>
        <time>2020-09-10T11:56:38Z</time>
      </trkpt>
      <trkpt lat="46.89974" lon="5.96363">
        <ele>641</ele>
        <time>2020-09-10T11:57:00Z</time>
      </trkpt>
      <trkpt lat="46.89988" lon="5.96377">
        <ele>641</ele>
        <time>2020-09-10T11:57:16Z</time>
      </trkpt>
      <trkpt lat="46.89996" lon="5.96391">
        <ele>641</ele>
        <time>2020-09-10T11:57:27Z</time>
      </trkpt>
      <trkpt lat="46.89999" lon="5.964">
        <ele>641</ele>
        <time>2020-09-10T11:57:33Z</time>
      </trkpt>
      <trkpt lat="46.90002" lon="5.96408">
        <ele>641</ele>
        <time>2020-09-10T11:57:39Z</time>
      </trkpt>
      <trkpt lat="46.90006" lon="5.96413">
        <ele>641</ele>
        <time>2020-09-10T11:57:45Z</time>
      </trkpt>
      <trkpt lat="46.90015" lon="5.96419">
        <ele>641</ele>
        <time>2020-09-10T11:57:59Z</time>
      </trkpt>
      <trkpt lat="46.90019" lon="5.96414">
        <ele>641</ele>
        <time>2020-09-10T11:58:05Z</time>
      </trkpt>
      <trkpt lat="46.9002" lon="5.96409">
        <ele>642</ele>
        <time>2020-09-10T11:58:13Z</time>
      </trkpt>
      <trkpt lat="46.90021" lon="5.96398">
        <ele>642</ele>
        <time>2020-09-10T11:58:30Z</time>
      </trkpt>
      <trkpt lat="46.90024" lon="5.96389">
        <ele>642</ele>
        <time>2020-09-10T11:58:35Z</time>
      </trkpt>
      <trkpt lat="46.90027" lon="5.96382">
        <ele>642</ele>
        <time>2020-09-10T11:58:41Z</time>
      </trkpt>
      <trkpt lat="46.9003" lon="5.96372">
        <ele>642</ele>
        <time>2020-09-10T11:58:49Z</time>
      </trkpt>
      <trkpt lat="46.90028" lon="5.96321">
        <ele>643</ele>
        <time>2020-09-10T11:59:19Z</time>
      </trkpt>
      <trkpt lat="46.90029" lon="5.96305">
        <ele>643</ele>
        <time>2020-09-10T11:59:28Z</time>
      </trkpt>
      <trkpt lat="46.9003" lon="5.96296">
        <ele>644</ele>
        <time>2020-09-10T11:59:34Z</time>
      </trkpt>
      <trkpt lat="46.90032" lon="5.96287">
        <ele>644</ele>
        <time>2020-09-10T11:59:40Z</time>
      </trkpt>
      <trkpt lat="46.90034" lon="5.96279">
        <ele>644</ele>
        <time>2020-09-10T11:59:45Z</time>
      </trkpt>
      <trkpt lat="46.9004" lon="5.9622">
        <ele>645</ele>
        <time>2020-09-10T12:00:21Z</time>
      </trkpt>
      <trkpt lat="46.90042" lon="5.96211">
        <ele>645</ele>
        <time>2020-09-10T12:00:26Z</time>
      </trkpt>
      <trkpt lat="46.90045" lon="5.96203">
        <ele>645</ele>
        <time>2020-09-10T12:00:31Z</time>
      </trkpt>
      <trkpt lat="46.90053" lon="5.96188">
        <ele>646</ele>
        <time>2020-09-10T12:00:40Z</time>
      </trkpt>
      <trkpt lat="46.90056" lon="5.96178">
        <ele>646</ele>
        <time>2020-09-10T12:00:46Z</time>
      </trkpt>
      <trkpt lat="46.90063" lon="5.96165">
        <ele>646</ele>
        <time>2020-09-10T12:00:55Z</time>
      </trkpt>
      <trkpt lat="46.90077" lon="5.96121">
        <ele>648</ele>
        <time>2020-09-10T12:01:24Z</time>
      </trkpt>
      <trkpt lat="46.90076" lon="5.96112">
        <ele>648</ele>
        <time>2020-09-10T12:01:28Z</time>
      </trkpt>
      <trkpt lat="46.90078" lon="5.96104">
        <ele>648</ele>
        <time>2020-09-10T12:01:34Z</time>
      </trkpt>
      <trkpt lat="46.90094" lon="5.96055">
        <ele>650</ele>
        <time>2020-09-10T12:02:01Z</time>
      </trkpt>
      <trkpt lat="46.90103" lon="5.96021">
        <ele>651</ele>
        <time>2020-09-10T12:02:21Z</time>
      </trkpt>
      <trkpt lat="46.90108" lon="5.96009">
        <ele>652</ele>
        <time>2020-09-10T12:02:28Z</time>
      </trkpt>
      <trkpt lat="46.90109" lon="5.96001">
        <ele>652</ele>
        <time>2020-09-10T12:02:33Z</time>
      </trkpt>
      <trkpt lat="46.90111" lon="5.95983">
        <ele>652</ele>
        <time>2020-09-10T12:02:42Z</time>
      </trkpt>
      <trkpt lat="46.90114" lon="5.95976">
        <ele>652</ele>
        <time>2020-09-10T12:02:48Z</time>
      </trkpt>
      <trkpt lat="46.90129" lon="5.9592">
        <ele>653</ele>
        <time>2020-09-10T12:03:20Z</time>
      </trkpt>
      <trkpt lat="46.90138" lon="5.9589">
        <ele>654</ele>
        <time>2020-09-10T12:03:37Z</time>
      </trkpt>
      <trkpt lat="46.9014" lon="5.9585">
        <ele>655</ele>
        <time>2020-09-10T12:04:05Z</time>
      </trkpt>
      <trkpt lat="46.90154" lon="5.95803">
        <ele>656</ele>
        <time>2020-09-10T12:04:34Z</time>
      </trkpt>
      <trkpt lat="46.90161" lon="5.95798">
        <ele>656</ele>
        <time>2020-09-10T12:04:42Z</time>
      </trkpt>
      <trkpt lat="46.90191" lon="5.9579">
        <ele>656</ele>
        <time>2020-09-10T12:05:05Z</time>
      </trkpt>
      <trkpt lat="46.90199" lon="5.95786">
        <ele>656</ele>
        <time>2020-09-10T12:05:12Z</time>
      </trkpt>
      <trkpt lat="46.90207" lon="5.95779">
        <ele>654</ele>
        <time>2020-09-10T12:05:28Z</time>
      </trkpt>
      <trkpt lat="46.90244" lon="5.95767">
        <ele>653</ele>
        <time>2020-09-10T12:06:03Z</time>
      </trkpt>
      <trkpt lat="46.90271" lon="5.95755">
        <ele>651</ele>
        <time>2020-09-10T12:06:27Z</time>
      </trkpt>
      <trkpt lat="46.90327" lon="5.95742">
        <ele>648</ele>
        <time>2020-09-10T12:07:02Z</time>
      </trkpt>
      <trkpt lat="46.90342" lon="5.95735">
        <ele>648</ele>
        <time>2020-09-10T12:07:11Z</time>
      </trkpt>
      <trkpt lat="46.90353" lon="5.95722">
        <ele>647</ele>
        <time>2020-09-10T12:07:23Z</time>
      </trkpt>
      <trkpt lat="46.90371" lon="5.95661">
        <ele>646</ele>
        <time>2020-09-10T12:08:03Z</time>
      </trkpt>
      <trkpt lat="46.90373" lon="5.9563">
        <ele>644</ele>
        <time>2020-09-10T12:08:25Z</time>
      </trkpt>
      <trkpt lat="46.90379" lon="5.95609">
        <ele>643</ele>
        <time>2020-09-10T12:08:34Z</time>
      </trkpt>
      <trkpt lat="46.90404" lon="5.95554">
        <ele>641</ele>
        <time>2020-09-10T12:09:08Z</time>
      </trkpt>
      <trkpt lat="46.90414" lon="5.95547">
        <ele>640</ele>
        <time>2020-09-10T12:09:17Z</time>
      </trkpt>
      <trkpt lat="46.90439" lon="5.95551">
        <ele>639</ele>
        <time>2020-09-10T12:09:33Z</time>
      </trkpt>
      <trkpt lat="46.90446" lon="5.95548">
        <ele>639</ele>
        <time>2020-09-10T12:09:38Z</time>
      </trkpt>
      <trkpt lat="46.90477" lon="5.95544">
        <ele>637</ele>
        <time>2020-09-10T12:10:02Z</time>
      </trkpt>
      <trkpt lat="46.90485" lon="5.95542">
        <ele>637</ele>
        <time>2020-09-10T12:10:08Z</time>
      </trkpt>
      <trkpt lat="46.90515" lon="5.95535">
        <ele>635</ele>
        <time>2020-09-10T12:10:32Z</time>
      </trkpt>
      <trkpt lat="46.90556" lon="5.95511">
        <ele>632</ele>
        <time>2020-09-10T12:11:05Z</time>
      </trkpt>
      <trkpt lat="46.90576" lon="5.95493">
        <ele>632</ele>
        <time>2020-09-10T12:11:24Z</time>
      </trkpt>
      <trkpt lat="46.90583" lon="5.95495">
        <ele>631</ele>
        <time>2020-09-10T12:11:30Z</time>
      </trkpt>
      <trkpt lat="46.90604" lon="5.95478">
        <ele>631</ele>
        <time>2020-09-10T12:11:49Z</time>
      </trkpt>
      <trkpt lat="46.90625" lon="5.95456">
        <ele>632</ele>
        <time>2020-09-10T12:12:10Z</time>
      </trkpt>
      <trkpt lat="46.90634" lon="5.95454">
        <ele>632</ele>
        <time>2020-09-10T12:12:17Z</time>
      </trkpt>
      <trkpt lat="46.90647" lon="5.95438">
        <ele>633</ele>
        <time>2020-09-10T12:12:34Z</time>
      </trkpt>
      <trkpt lat="46.90658" lon="5.95429">
        <ele>634</ele>
        <time>2020-09-10T12:12:49Z</time>
      </trkpt>
      <trkpt lat="46.90698" lon="5.95394">
        <ele>635</ele>
        <time>2020-09-10T12:13:22Z</time>
      </trkpt>
      <trkpt lat="46.90714" lon="5.95395">
        <ele>636</ele>
        <time>2020-09-10T12:13:33Z</time>
      </trkpt>
      <trkpt lat="46.90729" lon="5.95388">
        <ele>637</ele>
        <time>2020-09-10T12:13:45Z</time>
      </trkpt>
      <trkpt lat="46.90742" lon="5.95378">
        <ele>637</ele>
        <time>2020-09-10T12:13:55Z</time>
      </trkpt>
      <trkpt lat="46.90786" lon="5.9536">
        <ele>639</ele>
        <time>2020-09-10T12:14:31Z</time>
      </trkpt>
      <trkpt lat="46.90833" lon="5.95341">
        <ele>639</ele>
        <time>2020-09-10T12:15:07Z</time>
      </trkpt>
      <trkpt lat="46.90838" lon="5.95334">
        <ele>640</ele>
        <time>2020-09-10T12:15:14Z</time>
      </trkpt>
      <trkpt lat="46.90843" lon="5.95327">
        <ele>640</ele>
        <time>2020-09-10T12:15:20Z</time>
      </trkpt>
      <trkpt lat="46.90865" lon="5.95307">
        <ele>641</ele>
        <time>2020-09-10T12:15:43Z</time>
      </trkpt>
      <trkpt lat="46.90876" lon="5.95293">
        <ele>642</ele>
        <time>2020-09-10T12:15:57Z</time>
      </trkpt>
      <trkpt lat="46.90913" lon="5.95267">
        <ele>642</ele>
        <time>2020-09-10T12:16:28Z</time>
      </trkpt>
      <trkpt lat="46.90942" lon="5.95245">
        <ele>642</ele>
        <time>2020-09-10T12:16:51Z</time>
      </trkpt>
      <trkpt lat="46.90953" lon="5.95231">
        <ele>641</ele>
        <time>2020-09-10T12:17:04Z</time>
      </trkpt>
      <trkpt lat="46.90991" lon="5.95193">
        <ele>642</ele>
        <time>2020-09-10T12:17:40Z</time>
      </trkpt>
      <trkpt lat="46.91009" lon="5.95172">
        <ele>642</ele>
        <time>2020-09-10T12:17:59Z</time>
      </trkpt>
      <trkpt lat="46.91028" lon="5.9514">
        <ele>641</ele>
        <time>2020-09-10T12:18:28Z</time>
      </trkpt>
      <trkpt lat="46.9104" lon="5.95124">
        <ele>641</ele>
        <time>2020-09-10T12:18:41Z</time>
      </trkpt>
      <trkpt lat="46.91059" lon="5.95104">
        <ele>642</ele>
        <time>2020-09-10T12:18:58Z</time>
      </trkpt>
      <trkpt lat="46.91087" lon="5.95067">
        <ele>642</ele>
        <time>2020-09-10T12:19:32Z</time>
      </trkpt>
      <trkpt lat="46.91093" lon="5.95062">
        <ele>642</ele>
        <time>2020-09-10T12:19:39Z</time>
      </trkpt>
      <trkpt lat="46.91099" lon="5.95055">
        <ele>642</ele>
        <time>2020-09-10T12:19:44Z</time>
      </trkpt>
      <trkpt lat="46.91104" lon="5.95051">
        <ele>642</ele>
        <time>2020-09-10T12:19:50Z</time>
      </trkpt>
      <trkpt lat="46.91112" lon="5.95043">
        <ele>642</ele>
        <time>2020-09-10T12:20:19Z</time>
      </trkpt>
      <trkpt lat="46.91124" lon="5.95019">
        <ele>642</ele>
        <time>2020-09-10T12:20:44Z</time>
      </trkpt>
      <trkpt lat="46.9113" lon="5.95015">
        <ele>642</ele>
        <time>2020-09-10T12:20:54Z</time>
      </trkpt>
      <trkpt lat="46.91135" lon="5.95009">
        <ele>643</ele>
        <time>2020-09-10T12:21:02Z</time>
      </trkpt>
      <trkpt lat="46.91146" lon="5.94986">
        <ele>641</ele>
        <time>2020-09-10T12:21:19Z</time>
      </trkpt>
      <trkpt lat="46.91152" lon="5.94978">
        <ele>641</ele>
        <time>2020-09-10T12:21:27Z</time>
      </trkpt>
      <trkpt lat="46.91161" lon="5.94967">
        <ele>640</ele>
        <time>2020-09-10T12:21:36Z</time>
      </trkpt>
      <trkpt lat="46.91165" lon="5.94961">
        <ele>641</ele>
        <time>2020-09-10T12:21:41Z</time>
      </trkpt>
      <trkpt lat="46.91171" lon="5.94958">
        <ele>641</ele>
        <time>2020-09-10T12:21:46Z</time>
      </trkpt>
      <trkpt lat="46.9118" lon="5.94945">
        <ele>640</ele>
        <time>2020-09-10T12:21:59Z</time>
      </trkpt>
      <trkpt lat="46.91197" lon="5.94917">
        <ele>641</ele>
        <time>2020-09-10T12:22:23Z</time>
      </trkpt>
      <trkpt lat="46.91202" lon="5.94911">
        <ele>641</ele>
        <time>2020-09-10T12:22:29Z</time>
      </trkpt>
      <trkpt lat="46.91207" lon="5.94906">
        <ele>641</ele>
        <time>2020-09-10T12:22:34Z</time>
      </trkpt>
      <trkpt lat="46.91211" lon="5.94899">
        <ele>641</ele>
        <time>2020-09-10T12:22:40Z</time>
      </trkpt>
      <trkpt lat="46.91216" lon="5.94894">
        <ele>642</ele>
        <time>2020-09-10T12:22:45Z</time>
      </trkpt>
      <trkpt lat="46.91221" lon="5.94888">
        <ele>641</ele>
        <time>2020-09-10T12:22:51Z</time>
      </trkpt>
      <trkpt lat="46.91225" lon="5.94883">
        <ele>641</ele>
        <time>2020-09-10T12:23:09Z</time>
      </trkpt>
      <trkpt lat="46.9123" lon="5.94884">
        <ele>641</ele>
        <time>2020-09-10T12:24:09Z</time>
      </trkpt>
      <trkpt lat="46.91227" lon="5.94884">
        <ele>641</ele>
        <time>2020-09-10T12:27:09Z</time>
      </trkpt>
      <trkpt lat="46.91222" lon="5.94883">
        <ele>640</ele>
        <time>2020-09-10T12:27:42Z</time>
      </trkpt>
      <trkpt lat="46.91225" lon="5.94871">
        <ele>641</ele>
        <time>2020-09-10T12:28:40Z</time>
      </trkpt>
      <trkpt lat="46.9123" lon="5.94867">
        <ele>640</ele>
        <time>2020-09-10T12:28:46Z</time>
      </trkpt>
      <trkpt lat="46.91244" lon="5.94845">
        <ele>640</ele>
        <time>2020-09-10T12:29:04Z</time>
      </trkpt>
      <trkpt lat="46.9126" lon="5.94827">
        <ele>640</ele>
        <time>2020-09-10T12:29:24Z</time>
      </trkpt>
      <trkpt lat="46.91277" lon="5.9479">
        <ele>641</ele>
        <time>2020-09-10T12:29:54Z</time>
      </trkpt>
      <trkpt lat="46.91291" lon="5.94758">
        <ele>642</ele>
        <time>2020-09-10T12:30:16Z</time>
      </trkpt>
      <trkpt lat="46.91295" lon="5.94753">
        <ele>642</ele>
        <time>2020-09-10T12:30:21Z</time>
      </trkpt>
      <trkpt lat="46.91302" lon="5.94738">
        <ele>642</ele>
        <time>2020-09-10T12:30:30Z</time>
      </trkpt>
      <trkpt lat="46.91338" lon="5.94698">
        <ele>645</ele>
        <time>2020-09-10T12:31:03Z</time>
      </trkpt>
      <trkpt lat="46.91346" lon="5.94685">
        <ele>645</ele>
        <time>2020-09-10T12:31:12Z</time>
      </trkpt>
      <trkpt lat="46.91351" lon="5.9468">
        <ele>646</ele>
        <time>2020-09-10T12:31:16Z</time>
      </trkpt>
      <trkpt lat="46.91359" lon="5.94665">
        <ele>647</ele>
        <time>2020-09-10T12:31:27Z</time>
      </trkpt>
      <trkpt lat="46.91377" lon="5.94638">
        <ele>649</ele>
        <time>2020-09-10T12:31:48Z</time>
      </trkpt>
      <trkpt lat="46.91383" lon="5.94624">
        <ele>649</ele>
        <time>2020-09-10T12:31:59Z</time>
      </trkpt>
      <trkpt lat="46.91387" lon="5.94616">
        <ele>649</ele>
        <time>2020-09-10T12:32:05Z</time>
      </trkpt>
      <trkpt lat="46.91409" lon="5.94576">
        <ele>652</ele>
        <time>2020-09-10T12:32:37Z</time>
      </trkpt>
      <trkpt lat="46.91412" lon="5.94569">
        <ele>652</ele>
        <time>2020-09-10T12:32:42Z</time>
      </trkpt>
      <trkpt lat="46.91416" lon="5.94564">
        <ele>652</ele>
        <time>2020-09-10T12:32:49Z</time>
      </trkpt>
      <trkpt lat="46.91422" lon="5.94563">
        <ele>653</ele>
        <time>2020-09-10T12:32:54Z</time>
      </trkpt>
      <trkpt lat="46.91425" lon="5.94555">
        <ele>653</ele>
        <time>2020-09-10T12:33:00Z</time>
      </trkpt>
      <trkpt lat="46.91427" lon="5.94548">
        <ele>653</ele>
        <time>2020-09-10T12:33:06Z</time>
      </trkpt>
      <trkpt lat="46.91438" lon="5.94526">
        <ele>654</ele>
        <time>2020-09-10T12:33:24Z</time>
      </trkpt>
      <trkpt lat="46.91443" lon="5.94508">
        <ele>654</ele>
        <time>2020-09-10T12:33:34Z</time>
      </trkpt>
      <trkpt lat="46.91447" lon="5.94502">
        <ele>655</ele>
        <time>2020-09-10T12:33:39Z</time>
      </trkpt>
      <trkpt lat="46.91454" lon="5.94479">
        <ele>655</ele>
        <time>2020-09-10T12:33:53Z</time>
      </trkpt>
      <trkpt lat="46.9147" lon="5.94452">
        <ele>656</ele>
        <time>2020-09-10T12:34:12Z</time>
      </trkpt>
      <trkpt lat="46.91477" lon="5.94429">
        <ele>657</ele>
        <time>2020-09-10T12:34:26Z</time>
      </trkpt>
      <trkpt lat="46.91487" lon="5.94408">
        <ele>658</ele>
        <time>2020-09-10T12:34:42Z</time>
      </trkpt>
      <trkpt lat="46.91495" lon="5.94385">
        <ele>659</ele>
        <time>2020-09-10T12:34:57Z</time>
      </trkpt>
      <trkpt lat="46.91519" lon="5.9435">
        <ele>661</ele>
        <time>2020-09-10T12:35:28Z</time>
      </trkpt>
      <trkpt lat="46.91528" lon="5.94337">
        <ele>661</ele>
        <time>2020-09-10T12:35:37Z</time>
      </trkpt>
      <trkpt lat="46.91533" lon="5.94333">
        <ele>661</ele>
        <time>2020-09-10T12:35:42Z</time>
      </trkpt>
      <trkpt lat="46.91545" lon="5.94314">
        <ele>662</ele>
        <time>2020-09-10T12:35:58Z</time>
      </trkpt>
      <trkpt lat="46.91551" lon="5.94311">
        <ele>662</ele>
        <time>2020-09-10T12:36:03Z</time>
      </trkpt>
      <trkpt lat="46.91566" lon="5.94294">
        <ele>663</ele>
        <time>2020-09-10T12:36:21Z</time>
      </trkpt>
      <trkpt lat="46.91569" lon="5.94284">
        <ele>663</ele>
        <time>2020-09-10T12:36:26Z</time>
      </trkpt>
      <trkpt lat="46.91574" lon="5.9428">
        <ele>663</ele>
        <time>2020-09-10T12:36:31Z</time>
      </trkpt>
      <trkpt lat="46.91601" lon="5.94228">
        <ele>665</ele>
        <time>2020-09-10T12:37:05Z</time>
      </trkpt>
      <trkpt lat="46.91606" lon="5.94225">
        <ele>665</ele>
        <time>2020-09-10T12:37:09Z</time>
      </trkpt>
      <trkpt lat="46.91615" lon="5.9421">
        <ele>666</ele>
        <time>2020-09-10T12:37:25Z</time>
      </trkpt>
      <trkpt lat="46.91617" lon="5.94202">
        <ele>666</ele>
        <time>2020-09-10T12:37:29Z</time>
      </trkpt>
      <trkpt lat="46.9163" lon="5.9418">
        <ele>667</ele>
        <time>2020-09-10T12:37:46Z</time>
      </trkpt>
      <trkpt lat="46.91632" lon="5.94173">
        <ele>668</ele>
        <time>2020-09-10T12:37:50Z</time>
      </trkpt>
      <trkpt lat="46.91637" lon="5.94168">
        <ele>668</ele>
        <time>2020-09-10T12:37:54Z</time>
      </trkpt>
      <trkpt lat="46.91641" lon="5.94162">
        <ele>668</ele>
        <time>2020-09-10T12:37:59Z</time>
      </trkpt>
      <trkpt lat="46.91644" lon="5.94154">
        <ele>668</ele>
        <time>2020-09-10T12:38:03Z</time>
      </trkpt>
      <trkpt lat="46.9165" lon="5.94151">
        <ele>669</ele>
        <time>2020-09-10T12:38:08Z</time>
      </trkpt>
      <trkpt lat="46.91665" lon="5.94134">
        <ele>669</ele>
        <time>2020-09-10T12:38:22Z</time>
      </trkpt>
      <trkpt lat="46.91668" lon="5.94126">
        <ele>670</ele>
        <time>2020-09-10T12:38:27Z</time>
      </trkpt>
      <trkpt lat="46.91681" lon="5.9411">
        <ele>671</ele>
        <time>2020-09-10T12:38:42Z</time>
      </trkpt>
      <trkpt lat="46.91687" lon="5.94099">
        <ele>672</ele>
        <time>2020-09-10T12:38:50Z</time>
      </trkpt>
      <trkpt lat="46.91695" lon="5.94084">
        <ele>672</ele>
        <time>2020-09-10T12:39:04Z</time>
      </trkpt>
      <trkpt lat="46.91694" lon="5.94079">
        <ele>672</ele>
        <time>2020-09-10T12:39:46Z</time>
      </trkpt>
      <trkpt lat="46.91699" lon="5.94075">
        <ele>671</ele>
        <time>2020-09-10T12:40:22Z</time>
      </trkpt>
      <trkpt lat="46.91706" lon="5.94068">
        <ele>672</ele>
        <time>2020-09-10T12:41:45Z</time>
      </trkpt>
      <trkpt lat="46.91719" lon="5.94053">
        <ele>672</ele>
        <time>2020-09-10T12:42:03Z</time>
      </trkpt>
      <trkpt lat="46.9173" lon="5.9405">
        <ele>672</ele>
        <time>2020-09-10T12:42:13Z</time>
      </trkpt>
      <trkpt lat="46.91735" lon="5.94046">
        <ele>671</ele>
        <time>2020-09-10T12:42:17Z</time>
      </trkpt>
      <trkpt lat="46.91742" lon="5.94044">
        <ele>671</ele>
        <time>2020-09-10T12:42:38Z</time>
      </trkpt>
      <trkpt lat="46.91748" lon="5.94043">
        <ele>671</ele>
        <time>2020-09-10T12:42:50Z</time>
      </trkpt>
      <trkpt lat="46.91751" lon="5.94051">
        <ele>671</ele>
        <time>2020-09-10T12:42:56Z</time>
      </trkpt>
      <trkpt lat="46.91753" lon="5.94058">
        <ele>671</ele>
        <time>2020-09-10T12:43:02Z</time>
      </trkpt>
      <trkpt lat="46.91754" lon="5.94076">
        <ele>672</ele>
        <time>2020-09-10T12:43:14Z</time>
      </trkpt>
      <trkpt lat="46.91768" lon="5.94126">
        <ele>671</ele>
        <time>2020-09-10T12:43:41Z</time>
      </trkpt>
      <trkpt lat="46.91775" lon="5.9414">
        <ele>671</ele>
        <time>2020-09-10T12:43:50Z</time>
      </trkpt>
      <trkpt lat="46.91776" lon="5.94148">
        <ele>671</ele>
        <time>2020-09-10T12:43:54Z</time>
      </trkpt>
      <trkpt lat="46.9178" lon="5.94155">
        <ele>671</ele>
        <time>2020-09-10T12:43:59Z</time>
      </trkpt>
      <trkpt lat="46.91784" lon="5.94172">
        <ele>671</ele>
        <time>2020-09-10T12:44:09Z</time>
      </trkpt>
      <trkpt lat="46.91791" lon="5.94198">
        <ele>671</ele>
        <time>2020-09-10T12:44:23Z</time>
      </trkpt>
      <trkpt lat="46.91791" lon="5.94211">
        <ele>671</ele>
        <time>2020-09-10T12:44:32Z</time>
      </trkpt>
      <trkpt lat="46.91792" lon="5.94228">
        <ele>672</ele>
        <time>2020-09-10T12:44:40Z</time>
      </trkpt>
      <trkpt lat="46.91793" lon="5.94272">
        <ele>673</ele>
        <time>2020-09-10T12:45:03Z</time>
      </trkpt>
      <trkpt lat="46.91806" lon="5.9432">
        <ele>675</ele>
        <time>2020-09-10T12:45:30Z</time>
      </trkpt>
      <trkpt lat="46.91809" lon="5.94328">
        <ele>675</ele>
        <time>2020-09-10T12:45:35Z</time>
      </trkpt>
      <trkpt lat="46.91811" lon="5.94336">
        <ele>675</ele>
        <time>2020-09-10T12:45:39Z</time>
      </trkpt>
      <trkpt lat="46.91816" lon="5.94343">
        <ele>675</ele>
        <time>2020-09-10T12:45:43Z</time>
      </trkpt>
      <trkpt lat="46.91854" lon="5.94359">
        <ele>676</ele>
        <time>2020-09-10T12:46:13Z</time>
      </trkpt>
      <trkpt lat="46.91859" lon="5.9436">
        <ele>676</ele>
        <time>2020-09-10T12:46:18Z</time>
      </trkpt>
      <trkpt lat="46.91867" lon="5.94365">
        <ele>676</ele>
        <time>2020-09-10T12:46:27Z</time>
      </trkpt>
      <trkpt lat="46.9191" lon="5.94386">
        <ele>673</ele>
        <time>2020-09-10T12:47:00Z</time>
      </trkpt>
      <trkpt lat="46.9193" lon="5.94419">
        <ele>670</ele>
        <time>2020-09-10T12:47:24Z</time>
      </trkpt>
      <trkpt lat="46.91938" lon="5.94433">
        <ele>670</ele>
        <time>2020-09-10T12:47:34Z</time>
      </trkpt>
      <trkpt lat="46.91941" lon="5.94441">
        <ele>670</ele>
        <time>2020-09-10T12:47:39Z</time>
      </trkpt>
      <trkpt lat="46.91953" lon="5.9448">
        <ele>668</ele>
        <time>2020-09-10T12:48:03Z</time>
      </trkpt>
      <trkpt lat="46.91958" lon="5.94488">
        <ele>667</ele>
        <time>2020-09-10T12:48:09Z</time>
      </trkpt>
      <trkpt lat="46.91962" lon="5.94495">
        <ele>666</ele>
        <time>2020-09-10T12:48:13Z</time>
      </trkpt>
      <trkpt lat="46.91969" lon="5.9451">
        <ele>665</ele>
        <time>2020-09-10T12:48:23Z</time>
      </trkpt>
      <trkpt lat="46.91972" lon="5.94518">
        <ele>665</ele>
        <time>2020-09-10T12:48:27Z</time>
      </trkpt>
      <trkpt lat="46.91975" lon="5.94525">
        <ele>665</ele>
        <time>2020-09-10T12:48:31Z</time>
      </trkpt>
      <trkpt lat="46.91981" lon="5.94543">
        <ele>664</ele>
        <time>2020-09-10T12:48:40Z</time>
      </trkpt>
      <trkpt lat="46.91999" lon="5.94589">
        <ele>661</ele>
        <time>2020-09-10T12:49:05Z</time>
      </trkpt>
      <trkpt lat="46.92005" lon="5.94595">
        <ele>660</ele>
        <time>2020-09-10T12:49:11Z</time>
      </trkpt>
      <trkpt lat="46.9201" lon="5.94602">
        <ele>660</ele>
        <time>2020-09-10T12:49:15Z</time>
      </trkpt>
      <trkpt lat="46.92019" lon="5.94615">
        <ele>659</ele>
        <time>2020-09-10T12:49:26Z</time>
      </trkpt>
      <trkpt lat="46.92023" lon="5.9462">
        <ele>659</ele>
        <time>2020-09-10T12:49:30Z</time>
      </trkpt>
      <trkpt lat="46.92026" lon="5.94627">
        <ele>659</ele>
        <time>2020-09-10T12:49:34Z</time>
      </trkpt>
      <trkpt lat="46.92054" lon="5.94672">
        <ele>656</ele>
        <time>2020-09-10T12:50:06Z</time>
      </trkpt>
      <trkpt lat="46.92058" lon="5.94678">
        <ele>656</ele>
        <time>2020-09-10T12:50:10Z</time>
      </trkpt>
      <trkpt lat="46.92062" lon="5.94683">
        <ele>655</ele>
        <time>2020-09-10T12:50:14Z</time>
      </trkpt>
      <trkpt lat="46.92067" lon="5.94691">
        <ele>655</ele>
        <time>2020-09-10T12:50:19Z</time>
      </trkpt>
      <trkpt lat="46.92094" lon="5.9474">
        <ele>652</ele>
        <time>2020-09-10T12:50:51Z</time>
      </trkpt>
      <trkpt lat="46.92098" lon="5.94747">
        <ele>652</ele>
        <time>2020-09-10T12:50:55Z</time>
      </trkpt>
      <trkpt lat="46.92127" lon="5.94791">
        <ele>650</ele>
        <time>2020-09-10T12:51:26Z</time>
      </trkpt>
      <trkpt lat="46.92142" lon="5.94806">
        <ele>648</ele>
        <time>2020-09-10T12:51:40Z</time>
      </trkpt>
      <trkpt lat="46.92148" lon="5.9481">
        <ele>648</ele>
        <time>2020-09-10T12:51:44Z</time>
      </trkpt>
      <trkpt lat="46.92154" lon="5.94811">
        <ele>647</ele>
        <time>2020-09-10T12:51:49Z</time>
      </trkpt>
      <trkpt lat="46.92159" lon="5.94814">
        <ele>647</ele>
        <time>2020-09-10T12:51:54Z</time>
      </trkpt>
      <trkpt lat="46.92169" lon="5.94814">
        <ele>647</ele>
        <time>2020-09-10T12:52:04Z</time>
      </trkpt>
      <trkpt lat="46.92173" lon="5.94818">
        <ele>646</ele>
        <time>2020-09-10T12:52:10Z</time>
      </trkpt>
      <trkpt lat="46.92179" lon="5.9482">
        <ele>646</ele>
        <time>2020-09-10T12:52:15Z</time>
      </trkpt>
      <trkpt lat="46.92184" lon="5.94823">
        <ele>646</ele>
        <time>2020-09-10T12:52:20Z</time>
      </trkpt>
      <trkpt lat="46.92195" lon="5.94829">
        <ele>645</ele>
        <time>2020-09-10T12:52:31Z</time>
      </trkpt>
      <trkpt lat="46.92206" lon="5.94829">
        <ele>644</ele>
        <time>2020-09-10T12:52:42Z</time>
      </trkpt>
      <trkpt lat="46.92208" lon="5.94823">
        <ele>644</ele>
        <time>2020-09-10T12:53:26Z</time>
      </trkpt>
      <trkpt lat="46.92211" lon="5.94825">
        <ele>644</ele>
        <time>2020-09-10T12:53:44Z</time>
      </trkpt>
      <trkpt lat="46.92223" lon="5.94818">
        <ele>643</ele>
        <time>2020-09-10T12:53:59Z</time>
      </trkpt>
      <trkpt lat="46.9226" lon="5.94786">
        <ele>643</ele>
        <time>2020-09-10T12:54:30Z</time>
      </trkpt>
      <trkpt lat="46.92269" lon="5.94777">
        <ele>643</ele>
        <time>2020-09-10T12:54:40Z</time>
      </trkpt>
      <trkpt lat="46.92274" lon="5.94771">
        <ele>643</ele>
        <time>2020-09-10T12:54:45Z</time>
      </trkpt>
      <trkpt lat="46.9228" lon="5.94769">
        <ele>643</ele>
        <time>2020-09-10T12:54:50Z</time>
      </trkpt>
      <trkpt lat="46.92313" lon="5.94744">
        <ele>644</ele>
        <time>2020-09-10T12:55:16Z</time>
      </trkpt>
      <trkpt lat="46.92319" lon="5.94741">
        <ele>644</ele>
        <time>2020-09-10T12:55:21Z</time>
      </trkpt>
      <trkpt lat="46.92329" lon="5.9473">
        <ele>644</ele>
        <time>2020-09-10T12:55:30Z</time>
      </trkpt>
      <trkpt lat="46.92335" lon="5.94729">
        <ele>644</ele>
        <time>2020-09-10T12:55:35Z</time>
      </trkpt>
      <trkpt lat="46.92353" lon="5.94722">
        <ele>644</ele>
        <time>2020-09-10T12:55:47Z</time>
      </trkpt>
      <trkpt lat="46.92363" lon="5.94715">
        <ele>644</ele>
        <time>2020-09-10T12:55:56Z</time>
      </trkpt>
      <trkpt lat="46.92368" lon="5.94714">
        <ele>644</ele>
        <time>2020-09-10T12:55:59Z</time>
      </trkpt>
      <trkpt lat="46.92372" lon="5.94712">
        <ele>644</ele>
        <time>2020-09-10T12:56:02Z</time>
      </trkpt>
      <trkpt lat="46.92376" lon="5.94712">
        <ele>644</ele>
        <time>2020-09-10T12:56:05Z</time>
      </trkpt>
      <trkpt lat="46.92381" lon="5.94711">
        <ele>644</ele>
        <time>2020-09-10T12:56:08Z</time>
      </trkpt>
      <trkpt lat="46.92385" lon="5.94709">
        <ele>644</ele>
        <time>2020-09-10T12:56:11Z</time>
      </trkpt>
      <trkpt lat="46.9239" lon="5.94709">
        <ele>644</ele>
        <time>2020-09-10T12:56:15Z</time>
      </trkpt>
      <trkpt lat="46.92395" lon="5.94707">
        <ele>644</ele>
        <time>2020-09-10T12:56:18Z</time>
      </trkpt>
      <trkpt lat="46.92408" lon="5.94703">
        <ele>644</ele>
        <time>2020-09-10T12:56:27Z</time>
      </trkpt>
      <trkpt lat="46.92413" lon="5.947">
        <ele>644</ele>
        <time>2020-09-10T12:56:31Z</time>
      </trkpt>
      <trkpt lat="46.92419" lon="5.94695">
        <ele>644</ele>
        <time>2020-09-10T12:56:37Z</time>
      </trkpt>
      <trkpt lat="46.92423" lon="5.94695">
        <ele>644</ele>
        <time>2020-09-10T12:56:40Z</time>
      </trkpt>
      <trkpt lat="46.92427" lon="5.94692">
        <ele>645</ele>
        <time>2020-09-10T12:56:43Z</time>
      </trkpt>
      <trkpt lat="46.92431" lon="5.94689">
        <ele>645</ele>
        <time>2020-09-10T12:56:47Z</time>
      </trkpt>
      <trkpt lat="46.92435" lon="5.94685">
        <ele>645</ele>
        <time>2020-09-10T12:56:50Z</time>
      </trkpt>
      <trkpt lat="46.92444" lon="5.94676">
        <ele>645</ele>
        <time>2020-09-10T12:56:59Z</time>
      </trkpt>
      <trkpt lat="46.92452" lon="5.94673">
        <ele>646</ele>
        <time>2020-09-10T12:57:06Z</time>
      </trkpt>
      <trkpt lat="46.92486" lon="5.94637">
        <ele>646</ele>
        <time>2020-09-10T12:57:38Z</time>
      </trkpt>
      <trkpt lat="46.92491" lon="5.94633">
        <ele>646</ele>
        <time>2020-09-10T12:57:41Z</time>
      </trkpt>
      <trkpt lat="46.92501" lon="5.94618">
        <ele>647</ele>
        <time>2020-09-10T12:57:52Z</time>
      </trkpt>
      <trkpt lat="46.92515" lon="5.94604">
        <ele>647</ele>
        <time>2020-09-10T12:58:04Z</time>
      </trkpt>
      <trkpt lat="46.92518" lon="5.94597">
        <ele>647</ele>
        <time>2020-09-10T12:58:09Z</time>
      </trkpt>
      <trkpt lat="46.92526" lon="5.94579">
        <ele>648</ele>
        <time>2020-09-10T12:58:22Z</time>
      </trkpt>
      <trkpt lat="46.9253" lon="5.94571">
        <ele>649</ele>
        <time>2020-09-10T12:58:27Z</time>
      </trkpt>
      <trkpt lat="46.92539" lon="5.94559">
        <ele>649</ele>
        <time>2020-09-10T12:58:37Z</time>
      </trkpt>
      <trkpt lat="46.92543" lon="5.94553">
        <ele>649</ele>
        <time>2020-09-10T12:58:41Z</time>
      </trkpt>
      <trkpt lat="46.92574" lon="5.94517">
        <ele>651</ele>
        <time>2020-09-10T12:59:10Z</time>
      </trkpt>
      <trkpt lat="46.92598" lon="5.94509">
        <ele>650</ele>
        <time>2020-09-10T12:59:29Z</time>
      </trkpt>
      <trkpt lat="46.92604" lon="5.9451">
        <ele>650</ele>
        <time>2020-09-10T12:59:32Z</time>
      </trkpt>
      <trkpt lat="46.92653" lon="5.94496">
        <ele>647</ele>
        <time>2020-09-10T13:00:07Z</time>
      </trkpt>
      <trkpt lat="46.92689" lon="5.94467">
        <ele>645</ele>
        <time>2020-09-10T13:00:39Z</time>
      </trkpt>
      <trkpt lat="46.9271" lon="5.94448">
        <ele>642</ele>
        <time>2020-09-10T13:00:59Z</time>
      </trkpt>
      <trkpt lat="46.92724" lon="5.94432">
        <ele>641</ele>
        <time>2020-09-10T13:01:15Z</time>
      </trkpt>
      <trkpt lat="46.92732" lon="5.9442">
        <ele>640</ele>
        <time>2020-09-10T13:01:23Z</time>
      </trkpt>
      <trkpt lat="46.9274" lon="5.94413">
        <ele>640</ele>
        <time>2020-09-10T13:01:29Z</time>
      </trkpt>
      <trkpt lat="46.92766" lon="5.94388">
        <ele>637</ele>
        <time>2020-09-10T13:01:57Z</time>
      </trkpt>
      <trkpt lat="46.92769" lon="5.94381">
        <ele>636</ele>
        <time>2020-09-10T13:02:01Z</time>
      </trkpt>
      <trkpt lat="46.92774" lon="5.94375">
        <ele>636</ele>
        <time>2020-09-10T13:02:07Z</time>
      </trkpt>
      <trkpt lat="46.92784" lon="5.94354">
        <ele>634</ele>
        <time>2020-09-10T13:02:20Z</time>
      </trkpt>
      <trkpt lat="46.928" lon="5.94336">
        <ele>633</ele>
        <time>2020-09-10T13:02:39Z</time>
      </trkpt>
      <trkpt lat="46.92807" lon="5.94323">
        <ele>631</ele>
        <time>2020-09-10T13:02:50Z</time>
      </trkpt>
      <trkpt lat="46.92812" lon="5.9432">
        <ele>631</ele>
        <time>2020-09-10T13:02:54Z</time>
      </trkpt>
      <trkpt lat="46.92818" lon="5.94319">
        <ele>631</ele>
        <time>2020-09-10T13:03:00Z</time>
      </trkpt>
      <trkpt lat="46.92823" lon="5.94314">
        <ele>630</ele>
        <time>2020-09-10T13:03:05Z</time>
      </trkpt>
      <trkpt lat="46.92836" lon="5.94316">
        <ele>629</ele>
        <time>2020-09-10T13:03:16Z</time>
      </trkpt>
      <trkpt lat="46.92841" lon="5.94318">
        <ele>629</ele>
        <time>2020-09-10T13:03:20Z</time>
      </trkpt>
      <trkpt lat="46.92852" lon="5.94321">
        <ele>628</ele>
        <time>2020-09-10T13:03:27Z</time>
      </trkpt>
      <trkpt lat="46.92886" lon="5.94343">
        <ele>626</ele>
        <time>2020-09-10T13:03:58Z</time>
      </trkpt>
      <trkpt lat="46.92892" lon="5.94344">
        <ele>625</ele>
        <time>2020-09-10T13:04:02Z</time>
      </trkpt>
      <trkpt lat="46.92899" lon="5.94342">
        <ele>625</ele>
        <time>2020-09-10T13:04:07Z</time>
      </trkpt>
      <trkpt lat="46.92909" lon="5.94334">
        <ele>624</ele>
        <time>2020-09-10T13:04:17Z</time>
      </trkpt>
      <trkpt lat="46.92931" lon="5.943">
        <ele>624</ele>
        <time>2020-09-10T13:04:42Z</time>
      </trkpt>
      <trkpt lat="46.92935" lon="5.94291">
        <ele>624</ele>
        <time>2020-09-10T13:04:50Z</time>
      </trkpt>
      <trkpt lat="46.92948" lon="5.94273">
        <ele>624</ele>
        <time>2020-09-10T13:05:04Z</time>
      </trkpt>
      <trkpt lat="46.92958" lon="5.94251">
        <ele>623</ele>
        <time>2020-09-10T13:05:19Z</time>
      </trkpt>
      <trkpt lat="46.92987" lon="5.94206">
        <ele>623</ele>
        <time>2020-09-10T13:05:51Z</time>
      </trkpt>
      <trkpt lat="46.9299" lon="5.94199">
        <ele>623</ele>
        <time>2020-09-10T13:05:56Z</time>
      </trkpt>
      <trkpt lat="46.93015" lon="5.94148">
        <ele>622</ele>
        <time>2020-09-10T13:06:29Z</time>
      </trkpt>
      <trkpt lat="46.93036" lon="5.94128">
        <ele>622</ele>
        <time>2020-09-10T13:06:46Z</time>
      </trkpt>
      <trkpt lat="46.9304" lon="5.94121">
        <ele>622</ele>
        <time>2020-09-10T13:06:51Z</time>
      </trkpt>
      <trkpt lat="46.93045" lon="5.94104">
        <ele>621</ele>
        <time>2020-09-10T13:07:00Z</time>
      </trkpt>
      <trkpt lat="46.93049" lon="5.94097">
        <ele>621</ele>
        <time>2020-09-10T13:07:05Z</time>
      </trkpt>
      <trkpt lat="46.93055" lon="5.94091">
        <ele>621</ele>
        <time>2020-09-10T13:07:10Z</time>
      </trkpt>
      <trkpt lat="46.93072" lon="5.94046">
        <ele>621</ele>
        <time>2020-09-10T13:07:41Z</time>
      </trkpt>
      <trkpt lat="46.93075" lon="5.94037">
        <ele>621</ele>
        <time>2020-09-10T13:07:46Z</time>
      </trkpt>
      <trkpt lat="46.93086" lon="5.94016">
        <ele>621</ele>
        <time>2020-09-10T13:08:02Z</time>
      </trkpt>
      <trkpt lat="46.93094" lon="5.94005">
        <ele>621</ele>
        <time>2020-09-10T13:08:10Z</time>
      </trkpt>
      <trkpt lat="46.93116" lon="5.93971">
        <ele>621</ele>
        <time>2020-09-10T13:08:39Z</time>
      </trkpt>
      <trkpt lat="46.9312" lon="5.93966">
        <ele>621</ele>
        <time>2020-09-10T13:08:44Z</time>
      </trkpt>
      <trkpt lat="46.93124" lon="5.93966">
        <ele>621</ele>
        <time>2020-09-10T13:08:54Z</time>
      </trkpt>
      <trkpt lat="46.9313" lon="5.93968">
        <ele>621</ele>
        <time>2020-09-10T13:09:53Z</time>
      </trkpt>
      <trkpt lat="46.93125" lon="5.93974">
        <ele>621</ele>
        <time>2020-09-10T13:13:49Z</time>
      </trkpt>
      <trkpt lat="46.93134" lon="5.9396">
        <ele>622</ele>
        <time>2020-09-10T13:14:42Z</time>
      </trkpt>
      <trkpt lat="46.93151" lon="5.93935">
        <ele>623</ele>
        <time>2020-09-10T13:15:05Z</time>
      </trkpt>
      <trkpt lat="46.93156" lon="5.93934">
        <ele>623</ele>
        <time>2020-09-10T13:15:11Z</time>
      </trkpt>
      <trkpt lat="46.93162" lon="5.93938">
        <ele>624</ele>
        <time>2020-09-10T13:15:15Z</time>
      </trkpt>
      <trkpt lat="46.93166" lon="5.93955">
        <ele>624</ele>
        <time>2020-09-10T13:15:26Z</time>
      </trkpt>
      <trkpt lat="46.93168" lon="5.9401">
        <ele>624</ele>
        <time>2020-09-10T13:15:59Z</time>
      </trkpt>
      <trkpt lat="46.93168" lon="5.94015">
        <ele>624</ele>
        <time>2020-09-10T13:16:02Z</time>
      </trkpt>
      <trkpt lat="46.93165" lon="5.94028">
        <ele>624</ele>
        <time>2020-09-10T13:16:08Z</time>
      </trkpt>
      <trkpt lat="46.93165" lon="5.94037">
        <ele>624</ele>
        <time>2020-09-10T13:16:13Z</time>
      </trkpt>
      <trkpt lat="46.93146" lon="5.94098">
        <ele>626</ele>
        <time>2020-09-10T13:16:48Z</time>
      </trkpt>
      <trkpt lat="46.93142" lon="5.94113">
        <ele>626</ele>
        <time>2020-09-10T13:16:56Z</time>
      </trkpt>
      <trkpt lat="46.93142" lon="5.94122">
        <ele>627</ele>
        <time>2020-09-10T13:17:00Z</time>
      </trkpt>
      <trkpt lat="46.93139" lon="5.94137">
        <ele>627</ele>
        <time>2020-09-10T13:17:08Z</time>
      </trkpt>
      <trkpt lat="46.93137" lon="5.94177">
        <ele>628</ele>
        <time>2020-09-10T13:17:32Z</time>
      </trkpt>
      <trkpt lat="46.9314" lon="5.94185">
        <ele>628</ele>
        <time>2020-09-10T13:17:38Z</time>
      </trkpt>
      <trkpt lat="46.93141" lon="5.9422">
        <ele>628</ele>
        <time>2020-09-10T13:17:57Z</time>
      </trkpt>
      <trkpt lat="46.93138" lon="5.94228">
        <ele>628</ele>
        <time>2020-09-10T13:18:02Z</time>
      </trkpt>
      <trkpt lat="46.93135" lon="5.94263">
        <ele>627</ele>
        <time>2020-09-10T13:18:20Z</time>
      </trkpt>
      <trkpt lat="46.93132" lon="5.94279">
        <ele>627</ele>
        <time>2020-09-10T13:18:28Z</time>
      </trkpt>
      <trkpt lat="46.93134" lon="5.94307">
        <ele>627</ele>
        <time>2020-09-10T13:18:46Z</time>
      </trkpt>
      <trkpt lat="46.93133" lon="5.94316">
        <ele>627</ele>
        <time>2020-09-10T13:18:51Z</time>
      </trkpt>
      <trkpt lat="46.93135" lon="5.94327">
        <ele>626</ele>
        <time>2020-09-10T13:18:59Z</time>
      </trkpt>
      <trkpt lat="46.93134" lon="5.94352">
        <ele>624</ele>
        <time>2020-09-10T13:19:14Z</time>
      </trkpt>
      <trkpt lat="46.93132" lon="5.9436">
        <ele>624</ele>
        <time>2020-09-10T13:19:19Z</time>
      </trkpt>
      <trkpt lat="46.93135" lon="5.94413">
        <ele>622</ele>
        <time>2020-09-10T13:19:48Z</time>
      </trkpt>
      <trkpt lat="46.93134" lon="5.94422">
        <ele>621</ele>
        <time>2020-09-10T13:19:53Z</time>
      </trkpt>
      <trkpt lat="46.93135" lon="5.94428">
        <ele>621</ele>
        <time>2020-09-10T13:19:56Z</time>
      </trkpt>
      <trkpt lat="46.93131" lon="5.94465">
        <ele>619</ele>
        <time>2020-09-10T13:20:19Z</time>
      </trkpt>
      <trkpt lat="46.93132" lon="5.94475">
        <ele>619</ele>
        <time>2020-09-10T13:20:24Z</time>
      </trkpt>
      <trkpt lat="46.9313" lon="5.9449">
        <ele>619</ele>
        <time>2020-09-10T13:20:32Z</time>
      </trkpt>
      <trkpt lat="46.93131" lon="5.94498">
        <ele>618</ele>
        <time>2020-09-10T13:20:37Z</time>
      </trkpt>
      <trkpt lat="46.93131" lon="5.94549">
        <ele>617</ele>
        <time>2020-09-10T13:21:10Z</time>
      </trkpt>
      <trkpt lat="46.9313" lon="5.94558">
        <ele>618</ele>
        <time>2020-09-10T13:21:16Z</time>
      </trkpt>
      <trkpt lat="46.93122" lon="5.94603">
        <ele>617</ele>
        <time>2020-09-10T13:21:49Z</time>
      </trkpt>
      <trkpt lat="46.9312" lon="5.94623">
        <ele>617</ele>
        <time>2020-09-10T13:21:59Z</time>
      </trkpt>
      <trkpt lat="46.93115" lon="5.94638">
        <ele>616</ele>
        <time>2020-09-10T13:22:08Z</time>
      </trkpt>
      <trkpt lat="46.93116" lon="5.94657">
        <ele>616</ele>
        <time>2020-09-10T13:22:16Z</time>
      </trkpt>
      <trkpt lat="46.93111" lon="5.94698">
        <ele>614</ele>
        <time>2020-09-10T13:22:38Z</time>
      </trkpt>
      <trkpt lat="46.93111" lon="5.94726">
        <ele>613</ele>
        <time>2020-09-10T13:22:52Z</time>
      </trkpt>
      <trkpt lat="46.93109" lon="5.94742">
        <ele>612</ele>
        <time>2020-09-10T13:23:00Z</time>
      </trkpt>
      <trkpt lat="46.93108" lon="5.94751">
        <ele>612</ele>
        <time>2020-09-10T13:23:04Z</time>
      </trkpt>
      <trkpt lat="46.9311" lon="5.9476">
        <ele>612</ele>
        <time>2020-09-10T13:23:09Z</time>
      </trkpt>
      <trkpt lat="46.93107" lon="5.94812">
        <ele>611</ele>
        <time>2020-09-10T13:23:38Z</time>
      </trkpt>
      <trkpt lat="46.93107" lon="5.94821">
        <ele>610</ele>
        <time>2020-09-10T13:23:44Z</time>
      </trkpt>
      <trkpt lat="46.93103" lon="5.94852">
        <ele>610</ele>
        <time>2020-09-10T13:24:02Z</time>
      </trkpt>
      <trkpt lat="46.93102" lon="5.94869">
        <ele>610</ele>
        <time>2020-09-10T13:24:10Z</time>
      </trkpt>
      <trkpt lat="46.931" lon="5.94892">
        <ele>610</ele>
        <time>2020-09-10T13:24:24Z</time>
      </trkpt>
      <trkpt lat="46.93106" lon="5.94888">
        <ele>610</ele>
        <time>2020-09-10T13:24:44Z</time>
      </trkpt>
      <trkpt lat="46.93115" lon="5.94886">
        <ele>610</ele>
        <time>2020-09-10T13:25:08Z</time>
      </trkpt>
    </trkseg>
  </trk>
</gpx>